Observation data for Caprock Canyons on 06/26/2019      Previous  Date       Current Mesonet Observations  Soil Data  Daily Summary Page  Observations in Plain Language
KQU1 260500Z 15007KT 24/10 A3007 RMK A01 T02380099  RH  041%=      5-min Rain = 0
KQU1 260501Z 16007KT 24/10 A3007 RMK A01 T02360101  RH  043%=      5-min Rain = 0
KQU1 260502Z 16007KT 23/10 A3007 RMK A01 T02330101  RH  043%=      5-min Rain = 0
KQU1 260503Z 16009KT 23/10 A3007 RMK A01 T02310102  RH  044%=      5-min Rain = 0
KQU1 260504Z 17010KT 23/10 A3007 RMK A01 T02300102  RH  044%=      5-min Rain = 0
KQU1 260505Z 17011KT 23/10 A3007 RMK A01 T02290103  RH  045%=      5-min Rain = 0
KQU1 260506Z 17011KT 23/10 A3007 RMK A01 T02290103  RH  045%=      5-min Rain = 0
KQU1 260507Z 17012KT 23/10 A3007 RMK A01 T02300102  RH  044%=      5-min Rain = 0
KQU1 260508Z 17011KT 23/10 A3007 RMK A01 T02310102  RH  044%=      5-min Rain = 0
KQU1 260509Z 17012KT 23/10 A3007 RMK A01 T02310103  RH  044%=      5-min Rain = 0
KQU1 260510Z 18011KT 23/10 A3007 RMK A01 T02320102  RH  044%=      5-min Rain = 0
KQU1 260511Z 18011KT 23/10 A3007 RMK A01 T02320102  RH  044%=      5-min Rain = 0
KQU1 260512Z 18010KT 23/10 A3007 RMK A01 T02330102  RH  044%=      5-min Rain = 0
KQU1 260513Z 18010KT 23/10 A3007 RMK A01 T02330102  RH  044%=      5-min Rain = 0
KQU1 260514Z 18011KT 23/10 A3007 RMK A01 T02330103  RH  044%=      5-min Rain = 0
KQU1 260515Z 19010KT 23/10 A3007 RMK A01 T02330103  RH  044%=      5-min Rain = 0
KQU1 260516Z 19010KT 23/11 A3007 RMK A01 T02330105  RH  044%=      5-min Rain = 0
KQU1 260517Z 19011KT 23/11 A3007 RMK A01 T02320105  RH  045%=      5-min Rain = 0
KQU1 260518Z 18011KT 23/11 A3007 RMK A01 T02320106  RH  045%=      5-min Rain = 0
KQU1 260519Z 19011KT 23/11 A3007 RMK A01 T02320106  RH  045%=      5-min Rain = 0
KQU1 260520Z 19012KT 23/11 A3007 RMK A01 T02320106  RH  045%=      5-min Rain = 0
KQU1 260521Z 20012KT 23/11 A3007 RMK A01 T02320106  RH  045%=      5-min Rain = 0
KQU1 260522Z 20013KT 23/11 A3007 RMK A01 T02310108  RH  046%=      5-min Rain = 0
KQU1 260523Z 19013KT 23/11 A3007 RMK A01 T02290110  RH  047%=      5-min Rain = 0
KQU1 260524Z 20012KT 23/11 A3007 RMK A01 T02280111  RH  047%=      5-min Rain = 0
KQU1 260525Z 20013KT 23/11 A3007 RMK A01 T02270111  RH  048%=      5-min Rain = 0
KQU1 260526Z 20013KT 23/11 A3007 RMK A01 T02250112  RH  049%=      5-min Rain = 0
KQU1 260527Z 20014KT 22/11 A3007 RMK A01 T02230112  RH  049%=      5-min Rain = 0
KQU1 260528Z 20015KT 22/11 A3007 RMK A01 T02220112  RH  050%=      5-min Rain = 0
KQU1 260529Z 20015KT 22/11 A3008 RMK A01 T02210111  RH  050%=      5-min Rain = 0
KQU1 260530Z 20014KT 22/11 A3008 RMK A01 T02210111  RH  049%=      5-min Rain = 0
KQU1 260531Z 21014KT 22/11 A3008 RMK A01 T02220110  RH  049%=      5-min Rain = 0
KQU1 260532Z 22013KT 22/11 A3008 RMK A01 T02220110  RH  049%=      5-min Rain = 0
KQU1 260533Z 22012KT 22/11 A3007 RMK A01 T02230110  RH  049%=      5-min Rain = 0
KQU1 260534Z 22011KT 22/11 A3007 RMK A01 T02240110  RH  048%=      5-min Rain = 0
KQU1 260535Z 21015KT 22/11 A3007 RMK A01 T02240110  RH  048%=      5-min Rain = 0
KQU1 260536Z 21015KT 23/11 A3007 RMK A01 T02270110  RH  048%=      5-min Rain = 0
KQU1 260537Z 21015KT 23/11 A3007 RMK A01 T02280110  RH  047%=      5-min Rain = 0
KQU1 260538Z 21014KT 23/11 A3007 RMK A01 T02290110  RH  047%=      5-min Rain = 0
KQU1 260539Z 21016KT 23/11 A3007 RMK A01 T02290109  RH  047%=      5-min Rain = 0
KQU1 260540Z 21014KT 23/11 A3007 RMK A01 T02290110  RH  047%=      5-min Rain = 0
KQU1 260541Z 21014KT 23/11 A3006 RMK A01 T02290110  RH  047%=      5-min Rain = 0
KQU1 260542Z 21014KT 23/11 A3006 RMK A01 T02290110  RH  047%=      5-min Rain = 0
KQU1 260543Z 21014KT 23/11 A3006 RMK A01 T02290110  RH  047%=      5-min Rain = 0
KQU1 260544Z 21012KT 23/11 A3007 RMK A01 T02290111  RH  047%=      5-min Rain = 0
KQU1 260545Z 21013KT 23/11 A3007 RMK A01 T02290111  RH  047%=      5-min Rain = 0
KQU1 260546Z 21012KT 23/11 A3007 RMK A01 T02290112  RH  048%=      5-min Rain = 0
KQU1 260547Z 21012KT 23/11 A3007 RMK A01 T02290112  RH  048%=      5-min Rain = 0
KQU1 260548Z 21013KT 23/11 A3007 RMK A01 T02290112  RH  048%=      5-min Rain = 0
KQU1 260549Z 20012KT 23/11 A3007 RMK A01 T02280113  RH  048%=      5-min Rain = 0
KQU1 260550Z 20014KT 23/11 A3006 RMK A01 T02290114  RH  048%=      5-min Rain = 0
KQU1 260551Z 21013KT 23/11 A3006 RMK A01 T02290113  RH  048%=      5-min Rain = 0
KQU1 260552Z 21014KT 23/11 A3006 RMK A01 T02290114  RH  048%=      5-min Rain = 0
KQU1 260553Z 21015KT 23/11 A3006 RMK A01 T02290114  RH  048%=      5-min Rain = 0
KQU1 260554Z 21015KT 23/11 A3006 RMK A01 T02300114  RH  048%=      5-min Rain = 0
KQU1 260555Z 21014KT 23/12 A3006 RMK A01 T02310115  RH  048%=      5-min Rain = 0
KQU1 260556Z 21013KT 23/12 A3006 RMK A01 T02310115  RH  048%=      5-min Rain = 0
KQU1 260557Z 22015KT 23/12 A3006 RMK A01 T02310115  RH  048%=      5-min Rain = 0
KQU1 260558Z 21014KT 23/12 A3006 RMK A01 T02310116  RH  048%=      5-min Rain = 0
KQU1 260559Z 21014KT 23/12 A3006 RMK A01 T02310117  RH  048%=      5-min Rain = 0
KQU1 260600Z 21014KT 23/12 A3006 RMK A01 T02310117  RH  049%=      5-min Rain = 0
KQU1 260601Z 22014KT 23/12 A3006 RMK A01 T02310117  RH  049%=      5-min Rain = 0
KQU1 260602Z 21014KT 23/12 A3006 RMK A01 T02310118  RH  049%=      5-min Rain = 0
KQU1 260603Z 21014KT 23/12 A3006 RMK A01 T02310118  RH  049%=      5-min Rain = 0
KQU1 260604Z 21014KT 23/12 A3006 RMK A01 T02310119  RH  049%=      5-min Rain = 0
KQU1 260605Z 21016KT 23/12 A3006 RMK A01 T02310120  RH  049%=      5-min Rain = 0
KQU1 260606Z 21015KT 23/12 A3006 RMK A01 T02320120  RH  049%=      5-min Rain = 0
KQU1 260607Z 21015KT 23/12 A3006 RMK A01 T02320121  RH  050%=      5-min Rain = 0
KQU1 260608Z 21015KT 23/12 A3006 RMK A01 T02320122  RH  050%=      5-min Rain = 0
KQU1 260609Z 21014KT 23/12 A3006 RMK A01 T02320123  RH  050%=      5-min Rain = 0
KQU1 260610Z 21014KT 23/12 A3006 RMK A01 T02320124  RH  051%=      5-min Rain = 0
KQU1 260611Z 21014KT 23/12 A3005 RMK A01 T02310124  RH  051%=      5-min Rain = 0
KQU1 260612Z 21014KT 23/13 A3005 RMK A01 T02310125  RH  051%=      5-min Rain = 0
KQU1 260613Z 21013KT 23/13 A3005 RMK A01 T02310125  RH  051%=      5-min Rain = 0
KQU1 260614Z 21013KT 23/13 A3005 RMK A01 T02300126  RH  052%=      5-min Rain = 0
KQU1 260615Z 21015KT 23/13 A3005 RMK A01 T02300127  RH  052%=      5-min Rain = 0
KQU1 260616Z 21015KT 23/13 A3005 RMK A01 T02310128  RH  053%=      5-min Rain = 0
KQU1 260617Z 21014KT 23/13 A3005 RMK A01 T02310129  RH  052%=      5-min Rain = 0
KQU1 260618Z 21014KT 23/13 A3005 RMK A01 T02320129  RH  052%=      5-min Rain = 0
KQU1 260619Z 20014KT 23/13 A3005 RMK A01 T02320130  RH  053%=      5-min Rain = 0
KQU1 260620Z 20014KT 23/13 A3005 RMK A01 T02320130  RH  053%=      5-min Rain = 0
KQU1 260621Z 20013KT 23/13 A3005 RMK A01 T02310131  RH  053%=      5-min Rain = 0
KQU1 260622Z 20013KT 23/13 A3005 RMK A01 T02310132  RH  054%=      5-min Rain = 0
KQU1 260623Z 20013KT 23/13 A3005 RMK A01 T02300133  RH  054%=      5-min Rain = 0
KQU1 260624Z 20013KT 23/13 A3005 RMK A01 T02300133  RH  054%=      5-min Rain = 0
KQU1 260625Z 20012KT 23/13 A3005 RMK A01 T02300133  RH  055%=      5-min Rain = 0
KQU1 260626Z 20012KT 23/13 A3005 RMK A01 T02290133  RH  055%=      5-min Rain = 0
KQU1 260627Z 20012KT 23/13 A3005 RMK A01 T02280133  RH  055%=      5-min Rain = 0
KQU1 260628Z 21012KT 23/13 A3005 RMK A01 T02270133  RH  055%=      5-min Rain = 0
KQU1 260629Z 21012KT 23/13 A3004 RMK A01 T02260133  RH  056%=      5-min Rain = 0
KQU1 260630Z 20011KT 22/13 A3004 RMK A01 T02240133  RH  056%=      5-min Rain = 0
KQU1 260631Z 21012KT 22/13 A3004 RMK A01 T02240134  RH  057%=      5-min Rain = 0
KQU1 260632Z 21013KT 22/13 A3004 RMK A01 T02230134  RH  057%=      5-min Rain = 0
KQU1 260633Z 21014KT 22/14 A3004 RMK A01 T02230135  RH  057%=      5-min Rain = 0
KQU1 260634Z 21014KT 22/14 A3004 RMK A01 T02240136  RH  057%=      5-min Rain = 0
KQU1 260635Z 21015KT 23/14 A3004 RMK A01 T02250137  RH  058%=      5-min Rain = 0
KQU1 260636Z 21016KT 23/14 A3004 RMK A01 T02260138  RH  058%=      5-min Rain = 0
KQU1 260637Z 21015KT 23/14 A3003 RMK A01 T02270139  RH  058%=      5-min Rain = 0
KQU1 260638Z 21016KT 23/14 A3003 RMK A01 T02280140  RH  058%=      5-min Rain = 0
KQU1 260639Z 21017KT 23/14 A3003 RMK A01 T02280141  RH  058%=      5-min Rain = 0
KQU1 260640Z 21018KT 23/14 A3003 RMK A01 T02290142  RH  058%=      5-min Rain = 0
KQU1 260641Z 21018G23KT 23/14 A3003 RMK A01 T02300143  RH  058%=      5-min Rain = 0
KQU1 260642Z 21016KT 23/14 A3003 RMK A01 T02310144  RH  058%=      5-min Rain = 0
KQU1 260643Z 20017KT 23/14 A3003 RMK A01 T02310144  RH  058%=      5-min Rain = 0
KQU1 260644Z 20016KT 23/14 A3003 RMK A01 T02320144  RH  058%=      5-min Rain = 0
KQU1 260645Z 21015KT 23/15 A3003 RMK A01 T02310145  RH  058%=      5-min Rain = 0
KQU1 260646Z 21016KT 23/15 A3003 RMK A01 T02300145  RH  059%=      5-min Rain = 0
KQU1 260647Z 21017KT 23/15 A3003 RMK A01 T02300146  RH  059%=      5-min Rain = 0
KQU1 260648Z 21017KT 23/15 A3003 RMK A01 T02300146  RH  059%=      5-min Rain = 0
KQU1 260649Z 21018KT 23/15 A3003 RMK A01 T02300147  RH  059%=      5-min Rain = 0
KQU1 260650Z 21017KT 23/15 A3003 RMK A01 T02300147  RH  059%=      5-min Rain = 0
KQU1 260651Z 21016KT 23/15 A3003 RMK A01 T02300147  RH  060%=      5-min Rain = 0
KQU1 260652Z 21018KT 23/15 A3003 RMK A01 T02290147  RH  060%=      5-min Rain = 0
KQU1 260653Z 21017KT 23/15 A3002 RMK A01 T02290148  RH  060%=      5-min Rain = 0
KQU1 260654Z 21017KT 23/15 A3002 RMK A01 T02290148  RH  060%=      5-min Rain = 0
KQU1 260655Z 21018KT 23/15 A3002 RMK A01 T02290148  RH  060%=      5-min Rain = 0
KQU1 260656Z 21019KT 23/15 A3002 RMK A01 T02300149  RH  060%=      5-min Rain = 0
KQU1 260657Z 21017KT 23/15 A3002 RMK A01 T02300149  RH  060%=      5-min Rain = 0
KQU1 260658Z 21016KT 23/15 A3002 RMK A01 T02300149  RH  060%=      5-min Rain = 0
KQU1 260659Z 21016KT 23/15 A3002 RMK A01 T02300149  RH  061%=      5-min Rain = 0
KQU1 260700Z 20017KT 23/15 A3002 RMK A01 T02290149  RH  061%=      5-min Rain = 0
KQU1 260701Z 21016KT 23/15 A3002 RMK A01 T02290149  RH  061%=      5-min Rain = 0
KQU1 260702Z 21017G23KT 23/15 A3001 RMK A01 T02290150  RH  061%=      5-min Rain = 0
KQU1 260703Z 21018G23KT 23/15 A3001 RMK A01 T02300150  RH  061%=      5-min Rain = 0
KQU1 260704Z 21018KT 23/15 A3001 RMK A01 T02300150  RH  060%=      5-min Rain = 0
KQU1 260705Z 21017KT 23/15 A3001 RMK A01 T02310150  RH  060%=      5-min Rain = 0
KQU1 260706Z 21017KT 23/15 A3001 RMK A01 T02310150  RH  060%=      5-min Rain = 0
KQU1 260707Z 21017KT 23/15 A3001 RMK A01 T02310150  RH  060%=      5-min Rain = 0
KQU1 260708Z 21016G21KT 23/15 A3001 RMK A01 T02310150  RH  061%=      5-min Rain = 0
KQU1 260709Z 21017KT 23/15 A3001 RMK A01 T02310151  RH  061%=      5-min Rain = 0
KQU1 260710Z 21016KT 23/15 A3001 RMK A01 T02310151  RH  061%=      5-min Rain = 0
KQU1 260711Z 21017KT 23/15 A3001 RMK A01 T02310151  RH  061%=      5-min Rain = 0
KQU1 260712Z 21016G21KT 23/15 A3001 RMK A01 T02310151  RH  061%=      5-min Rain = 0
KQU1 260713Z 21019KT 23/15 A3001 RMK A01 T02310151  RH  060%=      5-min Rain = 0
KQU1 260714Z 21017KT 23/15 A3001 RMK A01 T02320151  RH  060%=      5-min Rain = 0
KQU1 260715Z 22017KT 23/15 A30 RMK A01 T02320151  RH  060%=      5-min Rain = 0
KQU1 260716Z 21019KT 23/15 A30 RMK A01 T02330151  RH  060%=      5-min Rain = 0
KQU1 260717Z 21018KT 23/15 A30 RMK A01 T02340151  RH  060%=      5-min Rain = 0
KQU1 260718Z 21018KT 23/15 A30 RMK A01 T02340151  RH  059%=      5-min Rain = 0
KQU1 260719Z 21017KT 24/15 A30 RMK A01 T02350151  RH  059%=      5-min Rain = 0
KQU1 260720Z 21017KT 23/15 A30 RMK A01 T02340151  RH  060%=      5-min Rain = 0
KQU1 260721Z 22016KT 23/15 A30 RMK A01 T02340151  RH  060%=      5-min Rain = 0
KQU1 260722Z 21016G22KT 24/15 A30 RMK A01 T02350151  RH  059%=      5-min Rain = 0
KQU1 260723Z 21016KT 24/15 A30 RMK A01 T02350151  RH  059%=      5-min Rain = 0
KQU1 260724Z 21016KT 24/15 A30 RMK A01 T02350152  RH  059%=      5-min Rain = 0
KQU1 260725Z 21014KT 24/15 A30 RMK A01 T02350152  RH  060%=      5-min Rain = 0
KQU1 260726Z 21016G21KT 23/15 A30 RMK A01 T02340152  RH  060%=      5-min Rain = 0
KQU1 260727Z 21016KT 24/15 A30 RMK A01 T02350152  RH  060%=      5-min Rain = 0
KQU1 260728Z 21016KT 24/15 A30 RMK A01 T02350152  RH  060%=      5-min Rain = 0
KQU1 260729Z 21015KT 24/15 A30 RMK A01 T02350153  RH  060%=      5-min Rain = 0
KQU1 260730Z 21015G20KT 24/15 A30 RMK A01 T02350153  RH  060%=      5-min Rain = 0
KQU1 260731Z 21016KT 24/15 A2999 RMK A01 T02350153  RH  060%=      5-min Rain = 0
KQU1 260732Z 21016KT 24/15 A2999 RMK A01 T02350154  RH  060%=      5-min Rain = 0
KQU1 260733Z 21016KT 24/15 A2999 RMK A01 T02360154  RH  060%=      5-min Rain = 0
KQU1 260734Z 21016KT 24/15 A2999 RMK A01 T02360154  RH  060%=      5-min Rain = 0
KQU1 260735Z 21016KT 24/16 A2999 RMK A01 T02360155  RH  060%=      5-min Rain = 0
KQU1 260736Z 21015KT 24/16 A2999 RMK A01 T02370155  RH  060%=      5-min Rain = 0
KQU1 260737Z 22016KT 24/16 A2999 RMK A01 T02370155  RH  060%=      5-min Rain = 0
KQU1 260738Z 22017KT 24/16 A2999 RMK A01 T02370156  RH  060%=      5-min Rain = 0
KQU1 260739Z 21017KT 24/16 A2999 RMK A01 T02380157  RH  060%=      5-min Rain = 0
KQU1 260740Z 21014KT 24/16 A2999 RMK A01 T02380157  RH  060%=      5-min Rain = 0
KQU1 260741Z 21017KT 24/16 A2999 RMK A01 T02370158  RH  061%=      5-min Rain = 0
KQU1 260742Z 21014KT 24/16 A2999 RMK A01 T02370158  RH  061%=      5-min Rain = 0
KQU1 260743Z 21018G23KT 24/16 A2999 RMK A01 T02370158  RH  061%=      5-min Rain = 0
KQU1 260744Z 21017KT 24/16 A2999 RMK A01 T02370159  RH  061%=      5-min Rain = 0
KQU1 260745Z 20015G20KT 24/16 A2999 RMK A01 T02370159  RH  062%=      5-min Rain = 0
KQU1 260746Z 21020KT 24/16 A2999 RMK A01 T02370160  RH  062%=      5-min Rain = 0
KQU1 260747Z 21017KT 24/16 A2999 RMK A01 T02380160  RH  061%=      5-min Rain = 0
KQU1 260748Z 20018G23KT 24/16 A2999 RMK A01 T02390160  RH  061%=      5-min Rain = 0
KQU1 260749Z 20018KT 24/16 A2999 RMK A01 T02390160  RH  061%=      5-min Rain = 0
KQU1 260750Z 20019KT 24/16 A2999 RMK A01 T02390160  RH  061%=      5-min Rain = 0
KQU1 260751Z 20020KT 24/16 A2999 RMK A01 T02400160  RH  061%=      5-min Rain = 0
KQU1 260752Z 20017KT 24/16 A2999 RMK A01 T02400161  RH  061%=      5-min Rain = 0
KQU1 260753Z 20017KT 24/16 A2999 RMK A01 T02400161  RH  061%=      5-min Rain = 0
KQU1 260754Z 20016G21KT 24/16 A2999 RMK A01 T02400161  RH  061%=      5-min Rain = 0
KQU1 260755Z 20017KT 24/16 A2999 RMK A01 T02400161  RH  061%=      5-min Rain = 0
KQU1 260756Z 20016KT 24/16 A2999 RMK A01 T02390161  RH  061%=      5-min Rain = 0
KQU1 260757Z 20017KT 24/16 A2999 RMK A01 T02390161  RH  061%=      5-min Rain = 0
KQU1 260758Z 20015KT 24/16 A2999 RMK A01 T02390161  RH  061%=      5-min Rain = 0
KQU1 260759Z 20018KT 24/16 A2999 RMK A01 T02390161  RH  061%=      5-min Rain = 0
KQU1 260800Z 20016KT 24/16 A2999 RMK A01 T02400160  RH  061%=      5-min Rain = 0
KQU1 260801Z 20014KT 24/16 A2999 RMK A01 T02390160  RH  061%=      5-min Rain = 0
KQU1 260802Z 20015KT 24/16 A2999 RMK A01 T02390160  RH  061%=      5-min Rain = 0
KQU1 260803Z 20017KT 24/16 A2999 RMK A01 T02400160  RH  061%=      5-min Rain = 0
KQU1 260804Z 20017KT 24/16 A2999 RMK A01 T02400160  RH  061%=      5-min Rain = 0
KQU1 260805Z 20016KT 24/16 A2999 RMK A01 T02410160  RH  061%=      5-min Rain = 0
KQU1 260806Z 20015KT 24/16 A2999 RMK A01 T02410160  RH  061%=      5-min Rain = 0
KQU1 260807Z 20017KT 24/16 A2999 RMK A01 T02410160  RH  061%=      5-min Rain = 0
KQU1 260808Z 20018KT 24/16 A2999 RMK A01 T02410160  RH  061%=      5-min Rain = 0
KQU1 260809Z 20016KT 24/16 A2999 RMK A01 T02420161  RH  061%=      5-min Rain = 0
KQU1 260810Z 21016KT 24/16 A2999 RMK A01 T02410161  RH  061%=      5-min Rain = 0
KQU1 260811Z 20017KT 24/16 A2999 RMK A01 T02410161  RH  061%=      5-min Rain = 0
KQU1 260812Z 21016G21KT 24/16 A2999 RMK A01 T02410161  RH  061%=      5-min Rain = 0
KQU1 260813Z 21017KT 24/16 A2999 RMK A01 T02410162  RH  061%=      5-min Rain = 0
KQU1 260814Z 21018KT 24/16 A2999 RMK A01 T02420162  RH  061%=      5-min Rain = 0
KQU1 260815Z 21015KT 24/16 A30 RMK A01 T02420162  RH  061%=      5-min Rain = 0
KQU1 260816Z 21017KT 24/16 A2999 RMK A01 T02420162  RH  061%=      5-min Rain = 0
KQU1 260817Z 20018KT 24/16 A2999 RMK A01 T02420162  RH  061%=      5-min Rain = 0
KQU1 260818Z 21014KT 24/16 A30 RMK A01 T02420162  RH  061%=      5-min Rain = 0
KQU1 260819Z 21014KT 24/16 A2999 RMK A01 T02420162  RH  061%=      5-min Rain = 0
KQU1 260820Z 20015KT 24/16 A2999 RMK A01 T02410162  RH  061%=      5-min Rain = 0
KQU1 260821Z 20016KT 24/16 A2999 RMK A01 T02410162  RH  061%=      5-min Rain = 0
KQU1 260822Z 21017KT 24/16 A2999 RMK A01 T02410163  RH  061%=      5-min Rain = 0
KQU1 260823Z 21017KT 24/16 A2999 RMK A01 T02420163  RH  061%=      5-min Rain = 0
KQU1 260824Z 20016KT 24/16 A2999 RMK A01 T02420162  RH  061%=      5-min Rain = 0
KQU1 260825Z 21015KT 24/16 A2999 RMK A01 T02420163  RH  061%=      5-min Rain = 0
KQU1 260826Z 21015KT 24/16 A2999 RMK A01 T02410163  RH  061%=      5-min Rain = 0
KQU1 260827Z 21016KT 24/16 A2999 RMK A01 T02410163  RH  062%=      5-min Rain = 0
KQU1 260828Z 21014KT 24/16 A2999 RMK A01 T02410163  RH  062%=      5-min Rain = 0
KQU1 260829Z 21015KT 24/16 A2999 RMK A01 T02400163  RH  062%=      5-min Rain = 0
KQU1 260830Z 21014KT 24/16 A2999 RMK A01 T02400163  RH  062%=      5-min Rain = 0
KQU1 260831Z 21017KT 24/16 A2999 RMK A01 T02400163  RH  062%=      5-min Rain = 0
KQU1 260832Z 21016KT 24/16 A2999 RMK A01 T02400163  RH  062%=      5-min Rain = 0
KQU1 260833Z 21015KT 24/16 A2999 RMK A01 T02400163  RH  062%=      5-min Rain = 0
KQU1 260834Z 21017KT 24/16 A2999 RMK A01 T02400163  RH  062%=      5-min Rain = 0
KQU1 260835Z 21015KT 24/16 A2999 RMK A01 T02400163  RH  062%=      5-min Rain = 0
KQU1 260836Z 21015KT 24/16 A2999 RMK A01 T02400163  RH  062%=      5-min Rain = 0
KQU1 260837Z 21013KT 24/16 A2999 RMK A01 T02390163  RH  062%=      5-min Rain = 0
KQU1 260838Z 21014KT 24/16 A30 RMK A01 T02380163  RH  063%=      5-min Rain = 0
KQU1 260839Z 21014KT 24/16 A30 RMK A01 T02380163  RH  063%=      5-min Rain = 0
KQU1 260840Z 21015KT 24/16 A30 RMK A01 T02380163  RH  063%=      5-min Rain = 0
KQU1 260841Z 21014KT 24/16 A30 RMK A01 T02390163  RH  063%=      5-min Rain = 0
KQU1 260842Z 21014KT 24/16 A30 RMK A01 T02380163  RH  063%=      5-min Rain = 0
KQU1 260843Z 21013KT 24/16 A30 RMK A01 T02380163  RH  063%=      5-min Rain = 0
KQU1 260844Z 21013KT 24/16 A30 RMK A01 T02370163  RH  063%=      5-min Rain = 0
KQU1 260845Z 20013KT 24/16 A30 RMK A01 T02370163  RH  063%=      5-min Rain = 0
KQU1 260846Z 20012KT 24/16 A30 RMK A01 T02360163  RH  063%=      5-min Rain = 0
KQU1 260847Z 20011KT 24/16 A30 RMK A01 T02360163  RH  064%=      5-min Rain = 0
KQU1 260848Z 21012KT 24/16 A30 RMK A01 T02350163  RH  064%=      5-min Rain = 0
KQU1 260849Z 20012KT 24/16 A30 RMK A01 T02350164  RH  064%=      5-min Rain = 0
KQU1 260850Z 20011KT 24/16 A3001 RMK A01 T02350164  RH  064%=      5-min Rain = 0
KQU1 260851Z 20010KT 23/16 A3001 RMK A01 T02340164  RH  065%=      5-min Rain = 0
KQU1 260852Z 19010KT 23/16 A3001 RMK A01 T02330164  RH  065%=      5-min Rain = 0
KQU1 260853Z 19010KT 23/16 A3001 RMK A01 T02330164  RH  065%=      5-min Rain = 0
KQU1 260854Z 17009KT 23/16 A3001 RMK A01 T02320164  RH  065%=      5-min Rain = 0
KQU1 260855Z 16008KT 23/16 A3001 RMK A01 T02310164  RH  066%=      5-min Rain = 0
KQU1 260856Z 14008KT 23/16 A3002 RMK A01 T02300164  RH  066%=      5-min Rain = 0
KQU1 260857Z 13009KT 23/16 A3002 RMK A01 T02290164  RH  067%=      5-min Rain = 0
KQU1 260858Z 13009KT 23/16 A3002 RMK A01 T02270164  RH  067%=      5-min Rain = 0
KQU1 260859Z 13010KT 23/16 A3002 RMK A01 T02260164  RH  068%=      5-min Rain = 0
KQU1 260900Z 12009KT 23/16 A3002 RMK A01 T02250164  RH  069%=      5-min Rain = 0
KQU1 260901Z 12009KT 22/16 A3002 RMK A01 T02240164  RH  069%=      5-min Rain = 0
KQU1 260902Z 12008KT 22/16 A3002 RMK A01 T02230164  RH  069%=      5-min Rain = 0
KQU1 260903Z 12008KT 22/16 A3002 RMK A01 T02220164  RH  070%=      5-min Rain = 0
KQU1 260904Z 12008KT 22/17 A3002 RMK A01 T02210165  RH  070%=      5-min Rain = 0
KQU1 260905Z 13009KT 22/17 A3002 RMK A01 T02200165  RH  071%=      5-min Rain = 0
KQU1 260906Z 14009KT 22/17 A3002 RMK A01 T02210166  RH  071%=      5-min Rain = 0
KQU1 260907Z 15009KT 22/17 A3002 RMK A01 T02210166  RH  071%=      5-min Rain = 0
KQU1 260908Z 15010KT 22/17 A3002 RMK A01 T02230166  RH  070%=      5-min Rain = 0
KQU1 260909Z 15009KT 22/17 A3002 RMK A01 T02240166  RH  070%=      5-min Rain = 0
KQU1 260910Z 16009KT 22/17 A3002 RMK A01 T02240166  RH  070%=      5-min Rain = 0
KQU1 260911Z 16009KT 22/17 A3002 RMK A01 T02230166  RH  070%=      5-min Rain = 0
KQU1 260912Z 17009KT 22/17 A3003 RMK A01 T02220166  RH  070%=      5-min Rain = 0
KQU1 260913Z 16009KT 22/17 A3003 RMK A01 T02220166  RH  071%=      5-min Rain = 0
KQU1 260914Z 17009KT 22/17 A3003 RMK A01 T02210166  RH  071%=      5-min Rain = 0
KQU1 260915Z 17008KT 22/17 A3003 RMK A01 T02210167  RH  071%=      5-min Rain = 0
KQU1 260916Z 17008KT 22/17 A3003 RMK A01 T02210167  RH  071%=      5-min Rain = 0
KQU1 260917Z 17007KT 22/17 A3003 RMK A01 T02210167  RH  071%=      5-min Rain = 0
KQU1 260918Z 17008KT 22/17 A3003 RMK A01 T02200166  RH  072%=      5-min Rain = 0
KQU1 260919Z 17008KT 22/17 A3003 RMK A01 T02190167  RH  072%=      5-min Rain = 0
KQU1 260920Z 17008KT 22/17 A3003 RMK A01 T02190167  RH  072%=      5-min Rain = 0
KQU1 260921Z 18008KT 22/17 A3003 RMK A01 T02180167  RH  072%=      5-min Rain = 0
KQU1 260922Z 18009KT 22/17 A3003 RMK A01 T02180167  RH  073%=      5-min Rain = 0
KQU1 260923Z 19009KT 22/17 A3002 RMK A01 T02180167  RH  073%=      5-min Rain = 0
KQU1 260924Z 19007KT 22/17 A3002 RMK A01 T02180167  RH  073%=      5-min Rain = 0
KQU1 260925Z 19008KT 22/17 A3002 RMK A01 T02180167  RH  072%=      5-min Rain = 0
KQU1 260926Z 19008KT 22/17 A3002 RMK A01 T02180166  RH  072%=      5-min Rain = 0
KQU1 260927Z 20008KT 22/17 A3002 RMK A01 T02170166  RH  073%=      5-min Rain = 0
KQU1 260928Z 20007KT 22/17 A3002 RMK A01 T02170166  RH  073%=      5-min Rain = 0
KQU1 260929Z 19007KT 22/17 A3002 RMK A01 T02160166  RH  073%=      5-min Rain = 0
KQU1 260930Z 20006KT 22/17 A3002 RMK A01 T02150166  RH  074%=      5-min Rain = 0
KQU1 260931Z 19005KT 21/17 A3002 RMK A01 T02140166  RH  074%=      5-min Rain = 0
KQU1 260932Z 17005KT 21/17 A3003 RMK A01 T02130166  RH  074%=      5-min Rain = 0
KQU1 260933Z 16005KT 21/17 A3003 RMK A01 T02120166  RH  075%=      5-min Rain = 0
KQU1 260934Z 14005KT 21/17 A3003 RMK A01 T02120166  RH  075%=      5-min Rain = 0
KQU1 260935Z 13005KT 21/17 A3003 RMK A01 T02110166  RH  075%=      5-min Rain = 0
KQU1 260936Z 15004KT 21/17 A3003 RMK A01 T02110166  RH  075%=      5-min Rain = 0
KQU1 260937Z 14004KT 21/17 A3003 RMK A01 T02110166  RH  075%=      5-min Rain = 0
KQU1 260938Z 12005KT 21/17 A3003 RMK A01 T02110166  RH  075%=      5-min Rain = 0
KQU1 260939Z 14006KT 21/17 A3003 RMK A01 T02110166  RH  076%=      5-min Rain = 0
KQU1 260940Z 13007KT 21/17 A3003 RMK A01 T02110166  RH  076%=      5-min Rain = 0
KQU1 260941Z 14007KT 21/17 A3003 RMK A01 T02110166  RH  076%=      5-min Rain = 0
KQU1 260942Z 14007KT 21/17 A3003 RMK A01 T02110166  RH  076%=      5-min Rain = 0
KQU1 260943Z 14007KT 21/17 A3003 RMK A01 T02110166  RH  076%=      5-min Rain = 0
KQU1 260944Z 14008KT 21/17 A3003 RMK A01 T02110166  RH  076%=      5-min Rain = 0
KQU1 260945Z 15007KT 21/17 A3003 RMK A01 T02110166  RH  076%=      5-min Rain = 0
KQU1 260946Z 15007KT 21/17 A3003 RMK A01 T02100166  RH  076%=      5-min Rain = 0
KQU1 260947Z 16007KT 21/17 A3003 RMK A01 T02100166  RH  076%=      5-min Rain = 0
KQU1 260948Z 17007KT 21/17 A3003 RMK A01 T02100167  RH  076%=      5-min Rain = 0
KQU1 260949Z 18007KT 21/17 A3003 RMK A01 T02100167  RH  076%=      5-min Rain = 0
KQU1 260950Z 18007KT 21/17 A3003 RMK A01 T02120167  RH  076%=      5-min Rain = 0
KQU1 260951Z 17006KT 21/17 A3003 RMK A01 T02130167  RH  075%=      5-min Rain = 0
KQU1 260952Z 18007KT 21/17 A3003 RMK A01 T02140167  RH  075%=      5-min Rain = 0
KQU1 260953Z 18008KT 22/17 A3003 RMK A01 T02160168  RH  074%=      5-min Rain = 0
KQU1 260954Z 19007KT 22/17 A3003 RMK A01 T02170167  RH  073%=      5-min Rain = 0
KQU1 260955Z 19008KT 22/17 A3003 RMK A01 T02190167  RH  073%=      5-min Rain = 0
KQU1 260956Z 20010KT 22/17 A3002 RMK A01 T02200167  RH  072%=      5-min Rain = 0
KQU1 260957Z 19008KT 22/17 A3002 RMK A01 T02210167  RH  071%=      5-min Rain = 0
KQU1 260958Z 20008KT 22/17 A3002 RMK A01 T02220167  RH  071%=      5-min Rain = 0
KQU1 260959Z 19010KT 22/17 A3002 RMK A01 T02230168  RH  071%=      5-min Rain = 0
KQU1 261000Z 20008KT 22/17 A3003 RMK A01 T02230167  RH  070%=      5-min Rain = 0
KQU1 261001Z 20010KT 22/17 A3003 RMK A01 T02230167  RH  071%=      5-min Rain = 0
KQU1 261002Z 19011KT 22/17 A3003 RMK A01 T02230168  RH  071%=      5-min Rain = 0
KQU1 261003Z 19009KT 22/17 A3003 RMK A01 T02240168  RH  070%=      5-min Rain = 0
KQU1 261004Z 19009KT 22/17 A3003 RMK A01 T02240168  RH  070%=      5-min Rain = 0
KQU1 261005Z 19013KT 23/17 A3003 RMK A01 T02250168  RH  070%=      5-min Rain = 0
KQU1 261006Z 19010KT 23/17 A3003 RMK A01 T02260168  RH  070%=      5-min Rain = 0
KQU1 261007Z 19012KT 23/17 A3003 RMK A01 T02250168  RH  070%=      5-min Rain = 0
KQU1 261008Z 19011KT 23/17 A3003 RMK A01 T02260168  RH  070%=      5-min Rain = 0
KQU1 261009Z 20012KT 23/17 A3003 RMK A01 T02260168  RH  070%=      5-min Rain = 0
KQU1 261010Z 20011KT 23/17 A3003 RMK A01 T02260168  RH  070%=      5-min Rain = 0
KQU1 261011Z 20012KT 23/17 A3002 RMK A01 T02260168  RH  070%=      5-min Rain = 0
KQU1 261012Z 21011KT 23/17 A3002 RMK A01 T02260168  RH  070%=      5-min Rain = 0
KQU1 261013Z 21011KT 23/17 A3002 RMK A01 T02260168  RH  070%=      5-min Rain = 0
KQU1 261014Z 21012KT 23/17 A3002 RMK A01 T02260168  RH  070%=      5-min Rain = 0
KQU1 261015Z 21014KT 23/17 A3002 RMK A01 T02260168  RH  070%=      5-min Rain = 0
KQU1 261016Z 22013KT 23/17 A3002 RMK A01 T02260168  RH  070%=      5-min Rain = 0
KQU1 261017Z 21016KT 23/17 A3002 RMK A01 T02250168  RH  070%=      5-min Rain = 0
KQU1 261018Z 22015KT 23/17 A3002 RMK A01 T02270168  RH  069%=      5-min Rain = 0
KQU1 261019Z 22014G19KT 23/17 A3002 RMK A01 T02270168  RH  069%=      5-min Rain = 0
KQU1 261020Z 22013KT 23/17 A3002 RMK A01 T02270168  RH  069%=      5-min Rain = 0
KQU1 261021Z 22014KT 23/17 A3002 RMK A01 T02270168  RH  069%=      5-min Rain = 0
KQU1 261022Z 21015KT 23/17 A3002 RMK A01 T02270168  RH  069%=      5-min Rain = 0
KQU1 261023Z 22013KT 23/17 A3002 RMK A01 T02270168  RH  069%=      5-min Rain = 0
KQU1 261024Z 22014KT 23/17 A3002 RMK A01 T02270168  RH  069%=      5-min Rain = 0
KQU1 261025Z 22013KT 23/17 A3002 RMK A01 T02270168  RH  069%=      5-min Rain = 0
KQU1 261026Z 21015KT 23/17 A3002 RMK A01 T02270168  RH  069%=      5-min Rain = 0
KQU1 261027Z 22015KT 23/17 A3003 RMK A01 T02270168  RH  069%=      5-min Rain = 0
KQU1 261028Z 21014KT 23/17 A3003 RMK A01 T02280168  RH  069%=      5-min Rain = 0
KQU1 261029Z 21013KT 23/17 A3003 RMK A01 T02270168  RH  069%=      5-min Rain = 0
KQU1 261030Z 21014KT 23/17 A3003 RMK A01 T02270168  RH  069%=      5-min Rain = 0
KQU1 261031Z 21015KT 23/17 A3003 RMK A01 T02270168  RH  069%=      5-min Rain = 0
KQU1 261032Z 21014KT 23/17 A3003 RMK A01 T02280168  RH  069%=      5-min Rain = 0
KQU1 261033Z 21015KT 23/17 A3003 RMK A01 T02280168  RH  069%=      5-min Rain = 0
KQU1 261034Z 21013KT 23/17 A3003 RMK A01 T02280168  RH  069%=      5-min Rain = 0
KQU1 261035Z 21014KT 23/17 A3003 RMK A01 T02280168  RH  069%=      5-min Rain = 0
KQU1 261036Z 21014KT 23/17 A3003 RMK A01 T02280168  RH  069%=      5-min Rain = 0
KQU1 261037Z 21011KT 23/17 A3003 RMK A01 T02270168  RH  069%=      5-min Rain = 0
KQU1 261038Z 21012KT 23/17 A3003 RMK A01 T02260168  RH  069%=      5-min Rain = 0
KQU1 261039Z 21015KT 23/17 A3004 RMK A01 T02260168  RH  070%=      5-min Rain = 0
KQU1 261040Z 21017KT 23/17 A3004 RMK A01 T02270168  RH  069%=      5-min Rain = 0
KQU1 261041Z 21012KT 23/17 A3004 RMK A01 T02280168  RH  069%=      5-min Rain = 0
KQU1 261042Z 21012KT 23/17 A3004 RMK A01 T02280168  RH  069%=      5-min Rain = 0
KQU1 261043Z 21012G17KT 23/17 A3004 RMK A01 T02270168  RH  069%=      5-min Rain = 0
KQU1 261044Z 21013KT 23/17 A3004 RMK A01 T02270168  RH  069%=      5-min Rain = 0
KQU1 261045Z 22014KT 23/17 A3004 RMK A01 T02270168  RH  069%=      5-min Rain = 0
KQU1 261046Z 21011KT 23/17 A3004 RMK A01 T02270168  RH  069%=      5-min Rain = 0
KQU1 261047Z 21010KT 23/17 A3004 RMK A01 T02260168  RH  069%=      5-min Rain = 0
KQU1 261048Z 21012KT 23/17 A3004 RMK A01 T02260168  RH  070%=      5-min Rain = 0
KQU1 261049Z 22015KT 23/17 A3004 RMK A01 T02270168  RH  069%=      5-min Rain = 0
KQU1 261050Z 21011KT 23/17 A3004 RMK A01 T02280168  RH  069%=      5-min Rain = 0
KQU1 261051Z 21010KT 23/17 A3004 RMK A01 T02270168  RH  069%=      5-min Rain = 0
KQU1 261052Z 20010KT 23/17 A3004 RMK A01 T02270168  RH  069%=      5-min Rain = 0
KQU1 261053Z 20009KT 23/17 A3004 RMK A01 T02260168  RH  070%=      5-min Rain = 0
KQU1 261054Z 21010KT 23/17 A3004 RMK A01 T02250168  RH  070%=      5-min Rain = 0
KQU1 261055Z 21010KT 23/17 A3004 RMK A01 T02250168  RH  070%=      5-min Rain = 0
KQU1 261056Z 20010KT 22/17 A3004 RMK A01 T02240168  RH  070%=      5-min Rain = 0
KQU1 261057Z 21010KT 22/17 A3004 RMK A01 T02240168  RH  070%=      5-min Rain = 0
KQU1 261058Z 21012KT 22/17 A3004 RMK A01 T02240168  RH  070%=      5-min Rain = 0
KQU1 261059Z 21011KT 22/17 A3004 RMK A01 T02240168  RH  070%=      5-min Rain = 0
KQU1 261100Z 21013KT 23/17 A3004 RMK A01 T02250168  RH  070%=      5-min Rain = 0
KQU1 261101Z 22013KT 23/17 A3004 RMK A01 T02260168  RH  070%=      5-min Rain = 0
KQU1 261102Z 21011KT 23/17 A3004 RMK A01 T02260168  RH  070%=      5-min Rain = 0
KQU1 261103Z 21009KT 23/17 A3005 RMK A01 T02260168  RH  070%=      5-min Rain = 0
KQU1 261104Z 21009KT 23/17 A3005 RMK A01 T02250168  RH  070%=      5-min Rain = 0
KQU1 261105Z 21011KT 22/17 A3005 RMK A01 T02240168  RH  070%=      5-min Rain = 0
KQU1 261106Z 21009KT 23/17 A3005 RMK A01 T02250168  RH  070%=      5-min Rain = 0
KQU1 261107Z 21010KT 22/17 A3005 RMK A01 T02240168  RH  070%=      5-min Rain = 0
KQU1 261108Z 21011KT 22/17 A3005 RMK A01 T02240168  RH  070%=      5-min Rain = 0
KQU1 261109Z 21010KT 22/17 A3005 RMK A01 T02240168  RH  070%=      5-min Rain = 0
KQU1 261110Z 21010KT 22/17 A3005 RMK A01 T02240168  RH  070%=      5-min Rain = 0
KQU1 261111Z 21012KT 22/17 A3005 RMK A01 T02230168  RH  071%=      5-min Rain = 0
KQU1 261112Z 21011KT 22/17 A3005 RMK A01 T02230168  RH  071%=      5-min Rain = 0
KQU1 261113Z 21011KT 22/17 A3005 RMK A01 T02230168  RH  071%=      5-min Rain = 0
KQU1 261114Z 21013KT 22/17 A3005 RMK A01 T02230168  RH  071%=      5-min Rain = 0
KQU1 261115Z 21013KT 22/17 A3005 RMK A01 T02240168  RH  071%=      5-min Rain = 0
KQU1 261116Z 21012KT 22/17 A3005 RMK A01 T02240168  RH  070%=      5-min Rain = 0
KQU1 261117Z 21012KT 22/17 A3005 RMK A01 T02240168  RH  071%=      5-min Rain = 0
KQU1 261118Z 21011KT 22/17 A3005 RMK A01 T02240168  RH  071%=      5-min Rain = 0
KQU1 261119Z 21012KT 22/17 A3005 RMK A01 T02230168  RH  071%=      5-min Rain = 0
KQU1 261120Z 21012KT 22/17 A3005 RMK A01 T02230168  RH  071%=      5-min Rain = 0
KQU1 261121Z 20012KT 22/17 A3006 RMK A01 T02230168  RH  071%=      5-min Rain = 0
KQU1 261122Z 21011KT 22/17 A3006 RMK A01 T02230168  RH  071%=      5-min Rain = 0
KQU1 261123Z 21011KT 22/17 A3006 RMK A01 T02230168  RH  071%=      5-min Rain = 0
KQU1 261124Z 21011G16KT 22/17 A3006 RMK A01 T02230168  RH  071%=      5-min Rain = 0
KQU1 261125Z 20011KT 22/17 A3006 RMK A01 T02230168  RH  071%=      5-min Rain = 0
KQU1 261126Z 21011KT 22/17 A3006 RMK A01 T02230168  RH  071%=      5-min Rain = 0
KQU1 261127Z 21010KT 22/17 A3006 RMK A01 T02230168  RH  071%=      5-min Rain = 0
KQU1 261128Z 21012KT 22/17 A3006 RMK A01 T02220168  RH  071%=      5-min Rain = 0
KQU1 261129Z 21010KT 22/17 A3006 RMK A01 T02220168  RH  071%=      5-min Rain = 0
KQU1 261130Z 20011KT 22/17 A3006 RMK A01 T02220168  RH  072%=      5-min Rain = 0
KQU1 261131Z 22009KT 22/17 A3006 RMK A01 T02220168  RH  072%=      5-min Rain = 0
KQU1 261132Z 22012KT 22/17 A3006 RMK A01 T02220168  RH  072%=      5-min Rain = 0
KQU1 261133Z 21010KT 22/17 A3006 RMK A01 T02220168  RH  071%=      5-min Rain = 0
KQU1 261134Z 22010KT 22/17 A3006 RMK A01 T02220168  RH  071%=      5-min Rain = 0
KQU1 261135Z 21011KT 22/17 A3006 RMK A01 T02220168  RH  072%=      5-min Rain = 0
KQU1 261136Z 22011KT 22/17 A3006 RMK A01 T02220168  RH  072%=      5-min Rain = 0
KQU1 261137Z 21011KT 22/17 A3006 RMK A01 T02220168  RH  071%=      5-min Rain = 0
KQU1 261138Z 22012KT 22/17 A3006 RMK A01 T02220168  RH  071%=      5-min Rain = 0
KQU1 261139Z 21011KT 22/17 A3006 RMK A01 T02230168  RH  071%=      5-min Rain = 0
KQU1 261140Z 21011KT 22/17 A3006 RMK A01 T02230168  RH  071%=      5-min Rain = 0
KQU1 261141Z 21013KT 22/17 A3006 RMK A01 T02240168  RH  071%=      5-min Rain = 0
KQU1 261142Z 21009KT 22/17 A3006 RMK A01 T02240168  RH  071%=      5-min Rain = 0
KQU1 261143Z 21009KT 22/17 A3007 RMK A01 T02230168  RH  071%=      5-min Rain = 0
KQU1 261144Z 21010KT 22/17 A3007 RMK A01 T02230168  RH  071%=      5-min Rain = 0
KQU1 261145Z 21009KT 22/17 A3007 RMK A01 T02230169  RH  071%=      5-min Rain = 0
KQU1 261146Z 21009KT 22/17 A3007 RMK A01 T02230169  RH  071%=      5-min Rain = 0
KQU1 261147Z 21010KT 22/17 A3007 RMK A01 T02230169  RH  071%=      5-min Rain = 0
KQU1 261148Z 21010G15KT 22/17 A3007 RMK A01 T02230169  RH  071%=      5-min Rain = 0
KQU1 261149Z 21009KT 22/17 A3007 RMK A01 T02230169  RH  071%=      5-min Rain = 0
KQU1 261150Z 21009KT 22/17 A3007 RMK A01 T02230169  RH  071%=      5-min Rain = 0
KQU1 261151Z 20008KT 22/17 A3007 RMK A01 T02230169  RH  071%=      5-min Rain = 0
KQU1 261152Z 20007KT 22/17 A3007 RMK A01 T02230169  RH  071%=      5-min Rain = 0
KQU1 261153Z 20008KT 22/17 A3007 RMK A01 T02230169  RH  071%=      5-min Rain = 0
KQU1 261154Z 20009KT 22/17 A3007 RMK A01 T02230169  RH  071%=      5-min Rain = 0
KQU1 261155Z 20010KT 22/17 A3007 RMK A01 T02230169  RH  071%=      5-min Rain = 0
KQU1 261156Z 21008KT 22/17 A3007 RMK A01 T02230169  RH  071%=      5-min Rain = 0
KQU1 261157Z 20010KT 22/17 A3007 RMK A01 T02230169  RH  072%=      5-min Rain = 0
KQU1 261158Z 20008KT 22/17 A3007 RMK A01 T02230169  RH  072%=      5-min Rain = 0
KQU1 261159Z 20008KT 22/17 A3007 RMK A01 T02230169  RH  072%=      5-min Rain = 0
KQU1 261200Z 20009KT 22/17 A3007 RMK A01 T02220169  RH  072%=      5-min Rain = 0
KQU1 261201Z 20010KT 22/17 A3007 RMK A01 T02220169  RH  072%=      5-min Rain = 0
KQU1 261202Z 20010KT 22/17 A3007 RMK A01 T02220169  RH  072%=      5-min Rain = 0
KQU1 261203Z 20009KT 22/17 A3007 RMK A01 T02230169  RH  072%=      5-min Rain = 0
KQU1 261204Z 20011KT 22/17 A3007 RMK A01 T02230169  RH  072%=      5-min Rain = 0
KQU1 261205Z 19010KT 22/17 A3007 RMK A01 T02230170  RH  072%=      5-min Rain = 0
KQU1 261206Z 19009KT 22/17 A3007 RMK A01 T02230170  RH  072%=      5-min Rain = 0
KQU1 261207Z 19010KT 22/17 A3007 RMK A01 T02220170  RH  072%=      5-min Rain = 0
KQU1 261208Z 19008KT 22/17 A3007 RMK A01 T02220170  RH  072%=      5-min Rain = 0
KQU1 261209Z 19010KT 22/17 A3007 RMK A01 T02220170  RH  072%=      5-min Rain = 0
KQU1 261210Z 19010KT 22/17 A3007 RMK A01 T02220170  RH  073%=      5-min Rain = 0
KQU1 261211Z 19011KT 22/17 A3007 RMK A01 T02220170  RH  073%=      5-min Rain = 0
KQU1 261212Z 19011KT 22/17 A3007 RMK A01 T02220170  RH  073%=      5-min Rain = 0
KQU1 261213Z 19012KT 22/17 A3007 RMK A01 T02220171  RH  073%=      5-min Rain = 0
KQU1 261214Z 19011KT 22/17 A3008 RMK A01 T02220171  RH  072%=      5-min Rain = 0
KQU1 261215Z 18011KT 22/17 A3008 RMK A01 T02220171  RH  073%=      5-min Rain = 0
KQU1 261216Z 18011KT 22/17 A3008 RMK A01 T02220171  RH  073%=      5-min Rain = 0
KQU1 261217Z 19010KT 22/17 A3008 RMK A01 T02220171  RH  073%=      5-min Rain = 0
KQU1 261218Z 19010KT 22/17 A3008 RMK A01 T02230171  RH  072%=      5-min Rain = 0
KQU1 261219Z 19010KT 22/17 A3008 RMK A01 T02230171  RH  072%=      5-min Rain = 0
KQU1 261220Z 19010KT 22/17 A3008 RMK A01 T02230171  RH  072%=      5-min Rain = 0
KQU1 261221Z 19010KT 22/17 A3008 RMK A01 T02230171  RH  072%=      5-min Rain = 0
KQU1 261222Z 19009KT 22/17 A3008 RMK A01 T02240172  RH  072%=      5-min Rain = 0
KQU1 261223Z 19009KT 22/17 A3008 RMK A01 T02240172  RH  072%=      5-min Rain = 0
KQU1 261224Z 19009KT 22/17 A3008 RMK A01 T02240172  RH  073%=      5-min Rain = 0
KQU1 261225Z 19009KT 22/17 A3008 RMK A01 T02240172  RH  073%=      5-min Rain = 0
KQU1 261226Z 19010KT 22/17 A3008 RMK A01 T02240172  RH  073%=      5-min Rain = 0
KQU1 261227Z 19008KT 22/17 A3008 RMK A01 T02240173  RH  073%=      5-min Rain = 0
KQU1 261228Z 19009KT 22/17 A3008 RMK A01 T02240172  RH  073%=      5-min Rain = 0
KQU1 261229Z 19009KT 22/17 A3008 RMK A01 T02240173  RH  073%=      5-min Rain = 0
KQU1 261230Z 19009KT 22/17 A3008 RMK A01 T02240173  RH  072%=      5-min Rain = 0
KQU1 261231Z 19009KT 23/17 A3008 RMK A01 T02250173  RH  073%=      5-min Rain = 0
KQU1 261232Z 19008KT 23/17 A3008 RMK A01 T02250173  RH  072%=      5-min Rain = 0
KQU1 261233Z 19008KT 23/17 A3008 RMK A01 T02250174  RH  073%=      5-min Rain = 0
KQU1 261234Z 18007KT 23/17 A3008 RMK A01 T02250174  RH  073%=      5-min Rain = 0
KQU1 261235Z 19008KT 23/17 A3008 RMK A01 T02250174  RH  073%=      5-min Rain = 0
KQU1 261236Z 19007KT 23/18 A3008 RMK A01 T02260175  RH  073%=      5-min Rain = 0
KQU1 261237Z 18007KT 23/18 A3008 RMK A01 T02260175  RH  073%=      5-min Rain = 0
KQU1 261238Z 18007KT 23/18 A3008 RMK A01 T02260175  RH  073%=      5-min Rain = 0
KQU1 261239Z 18008KT 23/17 A3008 RMK A01 T02270174  RH  072%=      5-min Rain = 0
KQU1 261240Z 18007KT 23/18 A3008 RMK A01 T02270175  RH  072%=      5-min Rain = 0
KQU1 261241Z 17007KT 23/18 A3008 RMK A01 T02280177  RH  073%=      5-min Rain = 0
KQU1 261242Z 17008KT 23/18 A3008 RMK A01 T02280176  RH  072%=      5-min Rain = 0
KQU1 261243Z 17008KT 23/18 A3009 RMK A01 T02280176  RH  073%=      5-min Rain = 0
KQU1 261244Z 17008KT 23/18 A3009 RMK A01 T02280176  RH  072%=      5-min Rain = 0
KQU1 261245Z 18007KT 23/18 A3009 RMK A01 T02280176  RH  072%=      5-min Rain = 0
KQU1 261246Z 19008KT 23/18 A3009 RMK A01 T02280175  RH  072%=      5-min Rain = 0
KQU1 261247Z 19008KT 23/18 A3009 RMK A01 T02290175  RH  072%=      5-min Rain = 0
KQU1 261248Z 18007KT 23/18 A3009 RMK A01 T02300176  RH  072%=      5-min Rain = 0
KQU1 261249Z 18009KT 23/18 A3009 RMK A01 T02310176  RH  071%=      5-min Rain = 0
KQU1 261250Z 19008KT 23/18 A3009 RMK A01 T02310176  RH  071%=      5-min Rain = 0
KQU1 261251Z 18009KT 23/18 A3009 RMK A01 T02320175  RH  070%=      5-min Rain = 0
KQU1 261252Z 19009KT 23/18 A3009 RMK A01 T02330176  RH  070%=      5-min Rain = 0
KQU1 261253Z 18009KT 23/18 A3009 RMK A01 T02330176  RH  070%=      5-min Rain = 0
KQU1 261254Z 19009KT 23/18 A3009 RMK A01 T02340175  RH  070%=      5-min Rain = 0
KQU1 261255Z 19009KT 23/18 A3009 RMK A01 T02340176  RH  070%=      5-min Rain = 0
KQU1 261256Z 20009KT 24/18 A3009 RMK A01 T02350176  RH  069%=      5-min Rain = 0
KQU1 261257Z 20009KT 24/18 A3009 RMK A01 T02350176  RH  069%=      5-min Rain = 0
KQU1 261258Z 20010KT 24/18 A3009 RMK A01 T02350175  RH  069%=      5-min Rain = 0
KQU1 261259Z 20013KT 24/18 A3009 RMK A01 T02360175  RH  069%=      5-min Rain = 0
KQU1 261300Z 19010KT 24/18 A3009 RMK A01 T02360175  RH  068%=      5-min Rain = 0
KQU1 261301Z 19009KT 24/18 A3009 RMK A01 T02370177  RH  069%=      5-min Rain = 0
KQU1 261302Z 19008KT 24/18 A3009 RMK A01 T02380176  RH  069%=      5-min Rain = 0
KQU1 261303Z 20010KT 24/18 A3009 RMK A01 T02380176  RH  068%=      5-min Rain = 0
KQU1 261304Z 20011KT 24/18 A3009 RMK A01 T02380175  RH  068%=      5-min Rain = 0
KQU1 261305Z 20010KT 24/18 A3009 RMK A01 T02380176  RH  068%=      5-min Rain = 0
KQU1 261306Z 20010KT 24/18 A3009 RMK A01 T02380176  RH  068%=      5-min Rain = 0
KQU1 261307Z 21009KT 24/18 A3009 RMK A01 T02390177  RH  068%=      5-min Rain = 0
KQU1 261308Z 20009KT 24/18 A3009 RMK A01 T02390176  RH  068%=      5-min Rain = 0
KQU1 261309Z 21010KT 24/18 A3009 RMK A01 T02390176  RH  068%=      5-min Rain = 0
KQU1 261310Z 20010KT 24/18 A3009 RMK A01 T02400176  RH  068%=      5-min Rain = 0
KQU1 261311Z 20010KT 24/18 A3009 RMK A01 T02400177  RH  068%=      5-min Rain = 0
KQU1 261312Z 20009KT 24/18 A3009 RMK A01 T02410178  RH  068%=      5-min Rain = 0
KQU1 261313Z 19011KT 24/18 A3009 RMK A01 T02420177  RH  067%=      5-min Rain = 0
KQU1 261314Z 21012KT 24/18 A3009 RMK A01 T02410176  RH  067%=      5-min Rain = 0
KQU1 261315Z 20012KT 24/18 A3009 RMK A01 T02410176  RH  067%=      5-min Rain = 0
KQU1 261316Z 21012KT 24/18 A3009 RMK A01 T02410177  RH  067%=      5-min Rain = 0
KQU1 261317Z 21012KT 24/18 A3009 RMK A01 T02420177  RH  067%=      5-min Rain = 0
KQU1 261318Z 21013KT 24/18 A3009 RMK A01 T02420176  RH  067%=      5-min Rain = 0
KQU1 261319Z 21010KT 24/18 A3009 RMK A01 T02420177  RH  067%=      5-min Rain = 0
KQU1 261320Z 20009KT 24/18 A3009 RMK A01 T02420178  RH  067%=      5-min Rain = 0
KQU1 261321Z 20012G17KT 24/18 A3009 RMK A01 T02420178  RH  067%=      5-min Rain = 0
KQU1 261322Z 21014KT 24/18 A3009 RMK A01 T02430176  RH  066%=      5-min Rain = 0
KQU1 261323Z 20013KT 24/18 A3009 RMK A01 T02430177  RH  066%=      5-min Rain = 0
KQU1 261324Z 21015KT 24/18 A3009 RMK A01 T02430176  RH  066%=      5-min Rain = 0
KQU1 261325Z 20013KT 24/18 A3009 RMK A01 T02430176  RH  066%=      5-min Rain = 0
KQU1 261326Z 20013KT 24/18 A3009 RMK A01 T02430176  RH  066%=      5-min Rain = 0
KQU1 261327Z 20011KT 24/18 A3009 RMK A01 T02440177  RH  067%=      5-min Rain = 0
KQU1 261328Z 20012KT 24/18 A3009 RMK A01 T02440178  RH  066%=      5-min Rain = 0
KQU1 261329Z 21010KT 25/18 A3009 RMK A01 T02450179  RH  067%=      5-min Rain = 0
KQU1 261330Z 21010KT 25/18 A3009 RMK A01 T02460179  RH  067%=      5-min Rain = 0
KQU1 261331Z 20009KT 25/18 A3009 RMK A01 T02470181  RH  067%=      5-min Rain = 0
KQU1 261332Z 20011KT 25/18 A3009 RMK A01 T02480180  RH  066%=      5-min Rain = 0
KQU1 261333Z 20014KT 25/18 A3009 RMK A01 T02480178  RH  065%=      5-min Rain = 0
KQU1 261334Z 20012KT 25/18 A3009 RMK A01 T02470177  RH  065%=      5-min Rain = 0
KQU1 261335Z 21012KT 25/18 A3009 RMK A01 T02470178  RH  065%=      5-min Rain = 0
KQU1 261336Z 20010KT 25/18 A3009 RMK A01 T02470180  RH  066%=      5-min Rain = 0
KQU1 261337Z 21012KT 25/18 A3009 RMK A01 T02480178  RH  065%=      5-min Rain = 0
KQU1 261338Z 20012KT 25/18 A301 RMK A01 T02480180  RH  066%=      5-min Rain = 0
KQU1 261339Z 21017KT 25/18 A301 RMK A01 T02490177  RH  064%=      5-min Rain = 0
KQU1 261340Z 20012KT 25/18 A301 RMK A01 T02490179  RH  065%=      5-min Rain = 0
KQU1 261341Z 21014KT 25/18 A301 RMK A01 T02490178  RH  065%=      5-min Rain = 0
KQU1 261342Z 19012KT 25/18 A301 RMK A01 T02490179  RH  065%=      5-min Rain = 0
KQU1 261343Z 19014KT 25/18 A301 RMK A01 T02500178  RH  064%=      5-min Rain = 0
KQU1 261344Z 19013KT 25/18 A301 RMK A01 T02500178  RH  064%=      5-min Rain = 0
KQU1 261345Z 19013KT 25/18 A301 RMK A01 T02500178  RH  064%=      5-min Rain = 0
KQU1 261346Z 20014KT 25/18 A301 RMK A01 T02500178  RH  064%=      5-min Rain = 0
KQU1 261347Z 21012KT 25/18 A301 RMK A01 T02500178  RH  064%=      5-min Rain = 0
KQU1 261348Z 22014KT 25/18 A301 RMK A01 T02500179  RH  065%=      5-min Rain = 0
KQU1 261349Z 21011KT 25/18 A301 RMK A01 T02500179  RH  065%=      5-min Rain = 0
KQU1 261350Z 19011KT 25/18 A301 RMK A01 T02510181  RH  065%=      5-min Rain = 0
KQU1 261351Z 20012KT 25/18 A301 RMK A01 T02520178  RH  064%=      5-min Rain = 0
KQU1 261352Z 20011KT 25/18 A301 RMK A01 T02510178  RH  064%=      5-min Rain = 0
KQU1 261353Z 21012KT 25/18 A301 RMK A01 T02520179  RH  064%=      5-min Rain = 0
KQU1 261354Z 20011KT 25/18 A301 RMK A01 T02520179  RH  064%=      5-min Rain = 0
KQU1 261355Z 20011KT 25/18 A301 RMK A01 T02530180  RH  064%=      5-min Rain = 0
KQU1 261356Z 20011KT 25/18 A301 RMK A01 T02530181  RH  064%=      5-min Rain = 0
KQU1 261357Z 19010KT 25/18 A301 RMK A01 T02540181  RH  064%=      5-min Rain = 0
KQU1 261358Z 19011KT 26/18 A301 RMK A01 T02550180  RH  063%=      5-min Rain = 0
KQU1 261359Z 21013KT 26/18 A301 RMK A01 T02550179  RH  063%=      5-min Rain = 0
KQU1 261400Z 21012KT 25/18 A301 RMK A01 T02540179  RH  063%=      5-min Rain = 0
KQU1 261401Z 20012KT 25/18 A301 RMK A01 T02540180  RH  064%=      5-min Rain = 0
KQU1 261402Z 20013KT 25/18 A3011 RMK A01 T02540180  RH  063%=      5-min Rain = 0
KQU1 261403Z 20012KT 26/18 A3011 RMK A01 T02550179  RH  063%=      5-min Rain = 0
KQU1 261404Z 20013KT 26/18 A3011 RMK A01 T02560180  RH  063%=      5-min Rain = 0
KQU1 261405Z 20016KT 26/18 A3011 RMK A01 T02560178  RH  062%=      5-min Rain = 0
KQU1 261406Z 20016KT 26/18 A3011 RMK A01 T02550177  RH  062%=      5-min Rain = 0
KQU1 261407Z 21015KT 26/18 A3011 RMK A01 T02560178  RH  062%=      5-min Rain = 0
KQU1 261408Z 21014KT 26/18 A3011 RMK A01 T02560178  RH  062%=      5-min Rain = 0
KQU1 261409Z 20011KT 26/18 A3011 RMK A01 T02560179  RH  062%=      5-min Rain = 0
KQU1 261410Z 20010KT 26/18 A3011 RMK A01 T02560180  RH  063%=      5-min Rain = 0
KQU1 261411Z 20012KT 26/18 A3011 RMK A01 T02570181  RH  063%=      5-min Rain = 0
KQU1 261412Z 20011KT 26/18 A3011 RMK A01 T02580181  RH  063%=      5-min Rain = 0
KQU1 261413Z 21011KT 26/18 A3011 RMK A01 T02580181  RH  062%=      5-min Rain = 0
KQU1 261414Z 22013KT 26/18 A3011 RMK A01 T02580180  RH  062%=      5-min Rain = 0
KQU1 261415Z 21012KT 26/18 A3011 RMK A01 T02580180  RH  062%=      5-min Rain = 0
KQU1 261416Z 21012KT 26/18 A3011 RMK A01 T02580180  RH  062%=      5-min Rain = 0
KQU1 261417Z 21009KT 26/18 A3011 RMK A01 T02580182  RH  063%=      5-min Rain = 0
KQU1 261418Z 22012KT 26/18 A3011 RMK A01 T02600183  RH  063%=      5-min Rain = 0
KQU1 261419Z 22014KT 26/18 A3011 RMK A01 T02600180  RH  061%=      5-min Rain = 0
KQU1 261420Z 21013KT 26/18 A3011 RMK A01 T02590179  RH  061%=      5-min Rain = 0
KQU1 261421Z 21011KT 26/18 A3011 RMK A01 T02590180  RH  062%=      5-min Rain = 0
KQU1 261422Z 21012KT 26/18 A3011 RMK A01 T02590181  RH  062%=      5-min Rain = 0
KQU1 261423Z 21011KT 26/18 A3011 RMK A01 T02600181  RH  062%=      5-min Rain = 0
KQU1 261424Z 21011KT 26/18 A3011 RMK A01 T02600180  RH  061%=      5-min Rain = 0
KQU1 261425Z 21010KT 26/18 A3011 RMK A01 T02600180  RH  061%=      5-min Rain = 0
KQU1 261426Z 20010G15KT 26/18 A3011 RMK A01 T02620181  RH  061%=      5-min Rain = 0
KQU1 261427Z 20014KT 26/18 A3011 RMK A01 T02620177  RH  059%=      5-min Rain = 0
KQU1 261428Z 20016KT 26/18 A3011 RMK A01 T02620177  RH  059%=      5-min Rain = 0
KQU1 261429Z 21016G21KT 26/18 A3011 RMK A01 T02620176  RH  059%=      5-min Rain = 0
KQU1 261430Z 21014KT 26/18 A3011 RMK A01 T02620177  RH  060%=      5-min Rain = 0
KQU1 261431Z 20017KT 26/18 A3011 RMK A01 T02620177  RH  059%=      5-min Rain = 0
KQU1 261432Z 20016KT 26/18 A3011 RMK A01 T02630177  RH  059%=      5-min Rain = 0
KQU1 261433Z 20013KT 26/18 A3011 RMK A01 T02630178  RH  059%=      5-min Rain = 0
KQU1 261434Z 20014KT 26/18 A3011 RMK A01 T02640176  RH  058%=      5-min Rain = 0
KQU1 261435Z 20015KT 26/18 A3011 RMK A01 T02640176  RH  058%=      5-min Rain = 0
KQU1 261436Z 20017KT 27/17 A3011 RMK A01 T02650174  RH  057%=      5-min Rain = 0
KQU1 261437Z 21013G19KT 27/18 A3011 RMK A01 T02650176  RH  058%=      5-min Rain = 0
KQU1 261438Z 21012KT 27/18 A3011 RMK A01 T02650175  RH  058%=      5-min Rain = 0
KQU1 261439Z 20016KT 27/18 A3011 RMK A01 T02650176  RH  058%=      5-min Rain = 0
KQU1 261440Z 20014KT 27/18 A3011 RMK A01 T02650175  RH  058%=      5-min Rain = 0
KQU1 261441Z 21014KT 27/18 A3011 RMK A01 T02660177  RH  058%=      5-min Rain = 0
KQU1 261442Z 20014KT 27/18 A3011 RMK A01 T02660175  RH  057%=      5-min Rain = 0
KQU1 261443Z 21014KT 27/18 A3011 RMK A01 T02670176  RH  057%=      5-min Rain = 0
KQU1 261444Z 20014KT 27/18 A3011 RMK A01 T02680175  RH  057%=      5-min Rain = 0
KQU1 261445Z 20014KT 27/17 A3011 RMK A01 T02680173  RH  056%=      5-min Rain = 0
KQU1 261446Z 20012KT 27/18 A3011 RMK A01 T02670176  RH  057%=      5-min Rain = 0
KQU1 261447Z 20013KT 27/18 A3011 RMK A01 T02680177  RH  057%=      5-min Rain = 0
KQU1 261448Z 20011KT 27/17 A3011 RMK A01 T02690174  RH  056%=      5-min Rain = 0
KQU1 261449Z 21011KT 27/18 A3011 RMK A01 T02690176  RH  057%=      5-min Rain = 0
KQU1 261450Z 21013KT 27/18 A3011 RMK A01 T02700176  RH  056%=      5-min Rain = 0
KQU1 261451Z 21014KT 27/18 A3011 RMK A01 T02690175  RH  056%=      5-min Rain = 0
KQU1 261452Z 21015KT 27/17 A3011 RMK A01 T02690174  RH  056%=      5-min Rain = 0
KQU1 261453Z 21012KT 27/17 A3011 RMK A01 T02690174  RH  056%=      5-min Rain = 0
KQU1 261454Z 20013KT 27/17 A3011 RMK A01 T02690173  RH  056%=      5-min Rain = 0
KQU1 261455Z 20014KT 27/18 A3011 RMK A01 T02700175  RH  056%=      5-min Rain = 0
KQU1 261456Z 21014KT 27/17 A3011 RMK A01 T02700173  RH  055%=      5-min Rain = 0
KQU1 261457Z 22012KT 27/17 A3011 RMK A01 T02700173  RH  055%=      5-min Rain = 0
KQU1 261458Z 21013KT 27/17 A3011 RMK A01 T02700174  RH  055%=      5-min Rain = 0
KQU1 261459Z 21016KT 27/17 A3011 RMK A01 T02710173  RH  055%=      5-min Rain = 0
KQU1 261500Z 22012KT 27/17 A3011 RMK A01 T02710174  RH  055%=      5-min Rain = 0
KQU1 261501Z 22013KT 27/17 A3011 RMK A01 T02720174  RH  055%=      5-min Rain = 0
KQU1 261502Z 22013KT 27/18 A3011 RMK A01 T02720175  RH  055%=      5-min Rain = 0
KQU1 261503Z 21012KT 27/18 A3011 RMK A01 T02730177  RH  056%=      5-min Rain = 0
KQU1 261504Z 22011KT 27/18 A3011 RMK A01 T02740178  RH  056%=      5-min Rain = 0
KQU1 261505Z 21011KT 28/18 A3011 RMK A01 T02760178  RH  055%=      5-min Rain = 0
KQU1 261506Z 21012KT 28/18 A3011 RMK A01 T02750175  RH  054%=      5-min Rain = 0
KQU1 261507Z 21010KT 27/17 A3011 RMK A01 T02740174  RH  054%=      5-min Rain = 0
KQU1 261508Z 21011KT 27/18 A3011 RMK A01 T02740176  RH  055%=      5-min Rain = 0
KQU1 261509Z 20013KT 28/18 A3011 RMK A01 T02750176  RH  055%=      5-min Rain = 0
KQU1 261510Z 20015KT 28/17 A3011 RMK A01 T02750173  RH  054%=      5-min Rain = 0
KQU1 261511Z 20012KT 28/17 A3011 RMK A01 T02760173  RH  054%=      5-min Rain = 0
KQU1 261512Z 19012KT 28/17 A3011 RMK A01 T02760174  RH  054%=      5-min Rain = 0
KQU1 261513Z 19014KT 28/17 A3011 RMK A01 T02770172  RH  053%=      5-min Rain = 0
KQU1 261514Z 19014KT 28/17 A3011 RMK A01 T02790172  RH  052%=      5-min Rain = 0
KQU1 261515Z 19014KT 28/17 A3011 RMK A01 T02790170  RH  052%=      5-min Rain = 0
KQU1 261516Z 20015KT 28/17 A3011 RMK A01 T02790169  RH  051%=      5-min Rain = 0
KQU1 261517Z 19013KT 28/17 A3011 RMK A01 T02800170  RH  051%=      5-min Rain = 0
KQU1 261518Z 19015KT 28/17 A3011 RMK A01 T02800170  RH  051%=      5-min Rain = 0
KQU1 261519Z 18015KT 28/17 A3011 RMK A01 T02800170  RH  051%=      5-min Rain = 0
KQU1 261520Z 18016KT 28/17 A3011 RMK A01 T02790172  RH  052%=      5-min Rain = 0
KQU1 261521Z 19011KT 28/17 A3012 RMK A01 T02790173  RH  053%=      5-min Rain = 0
KQU1 261522Z 19011KT 28/18 A3012 RMK A01 T02810175  RH  053%=      5-min Rain = 0
KQU1 261523Z 20011KT 28/17 A3012 RMK A01 T02810173  RH  052%=      5-min Rain = 0
KQU1 261524Z 19013KT 28/17 A3012 RMK A01 T02820173  RH  052%=      5-min Rain = 0
KQU1 261525Z 21009KT 28/17 A3012 RMK A01 T02820174  RH  052%=      5-min Rain = 0
KQU1 261526Z 21012KT 28/18 A3012 RMK A01 T02830175  RH  052%=      5-min Rain = 0
KQU1 261527Z 22012KT 28/17 A3012 RMK A01 T02830173  RH  051%=      5-min Rain = 0
KQU1 261528Z 22013KT 28/17 A3012 RMK A01 T02820173  RH  052%=      5-min Rain = 0
KQU1 261529Z 21014KT 28/18 A3012 RMK A01 T02830176  RH  052%=      5-min Rain = 0
KQU1 261530Z 20013KT 28/17 A3012 RMK A01 T02820172  RH  051%=      5-min Rain = 0
KQU1 261531Z 20012KT 28/17 A3012 RMK A01 T02830171  RH  051%=      5-min Rain = 0
KQU1 261532Z 19011KT 28/17 A3012 RMK A01 T02820171  RH  051%=      5-min Rain = 0
KQU1 261533Z 19011KT 28/18 A3012 RMK A01 T02830175  RH  052%=      5-min Rain = 0
KQU1 261534Z 19016KT 28/17 A3012 RMK A01 T02840168  RH  049%=      5-min Rain = 0
KQU1 261535Z 19013KT 28/17 A3012 RMK A01 T02840169  RH  050%=      5-min Rain = 0
KQU1 261536Z 19013KT 28/17 A3012 RMK A01 T02840170  RH  050%=      5-min Rain = 0
KQU1 261537Z 19013KT 29/17 A3012 RMK A01 T02850171  RH  050%=      5-min Rain = 0
KQU1 261538Z 20013KT 29/17 A3012 RMK A01 T02860170  RH  049%=      5-min Rain = 0
KQU1 261539Z 19012KT 29/17 A3012 RMK A01 T02860172  RH  050%=      5-min Rain = 0
KQU1 261540Z 19013KT 29/18 A3012 RMK A01 T02880175  RH  050%=      5-min Rain = 0
KQU1 261541Z 19015KT 29/17 A3012 RMK A01 T02880168  RH  048%=      5-min Rain = 0
KQU1 261542Z 19015KT 29/17 A3012 RMK A01 T02870166  RH  048%=      5-min Rain = 0
KQU1 261543Z 20013KT 29/17 A3012 RMK A01 T02870168  RH  049%=      5-min Rain = 0
KQU1 261544Z 19011KT 29/17 A3012 RMK A01 T02870170  RH  049%=      5-min Rain = 0
KQU1 261545Z 17014KT 29/17 A3012 RMK A01 T02880172  RH  050%=      5-min Rain = 0
KQU1 261546Z 18015KT 29/17 A3012 RMK A01 T02870168  RH  049%=      5-min Rain = 0
KQU1 261547Z 19012KT 29/17 A3012 RMK A01 T02860172  RH  050%=      5-min Rain = 0
KQU1 261548Z 19016KT 29/17 A3012 RMK A01 T02870167  RH  048%=      5-min Rain = 0
KQU1 261549Z 19015KT 29/17 A3012 RMK A01 T02870166  RH  048%=      5-min Rain = 0
KQU1 261550Z 20015KT 29/17 A3012 RMK A01 T02880166  RH  048%=      5-min Rain = 0
KQU1 261551Z 19012KT 29/17 A3012 RMK A01 T02870167  RH  048%=      5-min Rain = 0
KQU1 261552Z 19012KT 29/17 A3012 RMK A01 T02880170  RH  049%=      5-min Rain = 0
KQU1 261553Z 19013KT 29/17 A3012 RMK A01 T02890172  RH  049%=      5-min Rain = 0
KQU1 261554Z 20011KT 29/17 A3012 RMK A01 T02900174  RH  050%=      5-min Rain = 0
KQU1 261555Z 21009KT 29/18 A3012 RMK A01 T02920175  RH  049%=      5-min Rain = 0
KQU1 261556Z 20010KT 29/17 A3012 RMK A01 T02920173  RH  049%=      5-min Rain = 0
KQU1 261557Z 20012KT 29/17 A3012 RMK A01 T02920173  RH  049%=      5-min Rain = 0
KQU1 261558Z 20012KT 29/17 A3012 RMK A01 T02930172  RH  048%=      5-min Rain = 0
KQU1 261559Z 21012KT 29/17 A3012 RMK A01 T02920173  RH  049%=      5-min Rain = 0
KQU1 261600Z 21010KT 29/17 A3012 RMK A01 T02920172  RH  048%=      5-min Rain = 0
KQU1 261601Z 20010KT 29/17 A3012 RMK A01 T02890170  RH  048%=      5-min Rain = 0
KQU1 261602Z 20010KT 29/17 A3012 RMK A01 T02880172  RH  049%=      5-min Rain = 0
KQU1 261603Z 17013KT 29/17 A3012 RMK A01 T02880172  RH  050%=      5-min Rain = 0
KQU1 261604Z 18012KT 29/17 A3012 RMK A01 T02860170  RH  049%=      5-min Rain = 0
KQU1 261605Z 18012KT 29/17 A3012 RMK A01 T02860170  RH  049%=      5-min Rain = 0
KQU1 261606Z 17011KT 29/17 A3012 RMK A01 T02870169  RH  049%=      5-min Rain = 0
KQU1 261607Z 17012KT 29/17 A3012 RMK A01 T02880171  RH  049%=      5-min Rain = 0
KQU1 261608Z 17012KT 29/17 A3012 RMK A01 T02890173  RH  049%=      5-min Rain = 0
KQU1 261609Z 17013KT 29/17 A3012 RMK A01 T02910172  RH  049%=      5-min Rain = 0
KQU1 261610Z 18010KT 29/17 A3012 RMK A01 T02910171  RH  048%=      5-min Rain = 0
KQU1 261611Z 18010KT 29/17 A3012 RMK A01 T02910173  RH  049%=      5-min Rain = 0
KQU1 261612Z 19011KT 29/17 A3012 RMK A01 T02920168  RH  047%=      5-min Rain = 0
KQU1 261613Z 20009KT 29/17 A3012 RMK A01 T02920171  RH  048%=      5-min Rain = 0
KQU1 261614Z 19010G15KT 29/17 A3012 RMK A01 T02930170  RH  047%=      5-min Rain = 0
KQU1 261615Z 18012KT 29/17 A3012 RMK A01 T02940169  RH  047%=      5-min Rain = 0
KQU1 261616Z 18014KT 29/17 A3012 RMK A01 T02940168  RH  047%=      5-min Rain = 0
KQU1 261617Z 19011KT 29/17 A3012 RMK A01 T02930172  RH  048%=      5-min Rain = 0
KQU1 261618Z 20011KT 29/17 A3012 RMK A01 T02940173  RH  048%=      5-min Rain = 0
KQU1 261619Z 20012KT 30/17 A3012 RMK A01 T02960170  RH  047%=      5-min Rain = 0
KQU1 261620Z 20011KT 30/17 A3012 RMK A01 T02950168  RH  046%=      5-min Rain = 0
KQU1 261621Z 18010KT 30/17 A3012 RMK A01 T02950171  RH  047%=      5-min Rain = 0
KQU1 261622Z 16014KT 30/17 A3012 RMK A01 T02950172  RH  048%=      5-min Rain = 0
KQU1 261623Z 16013KT 30/17 A3012 RMK A01 T02950170  RH  047%=      5-min Rain = 0
KQU1 261624Z 16013KT 30/17 A3012 RMK A01 T02950169  RH  047%=      5-min Rain = 0
KQU1 261625Z 17014KT 29/17 A3013 RMK A01 T02940167  RH  046%=      5-min Rain = 0
KQU1 261626Z 18013KT 29/16 A3013 RMK A01 T02920164  RH  046%=      5-min Rain = 0
KQU1 261627Z 19012KT 29/17 A3013 RMK A01 T02920165  RH  046%=      5-min Rain = 0
KQU1 261628Z 19011KT 29/17 A3012 RMK A01 T02930166  RH  046%=      5-min Rain = 0
KQU1 261629Z 17012KT 30/17 A3013 RMK A01 T02950172  RH  047%=      5-min Rain = 0
KQU1 261630Z 16011KT 30/17 A3013 RMK A01 T02960165  RH  045%=      5-min Rain = 0
KQU1 261631Z 17011KT 30/17 A3013 RMK A01 T02950169  RH  047%=      5-min Rain = 0
KQU1 261632Z 20010KT 30/16 A3013 RMK A01 T02960164  RH  045%=      5-min Rain = 0
KQU1 261633Z 18010KT 30/16 A3013 RMK A01 T02960164  RH  045%=      5-min Rain = 0
KQU1 261634Z 17011KT 30/17 A3013 RMK A01 T02960167  RH  046%=      5-min Rain = 0
KQU1 261635Z 18010KT 30/17 A3013 RMK A01 T02970172  RH  047%=      5-min Rain = 0
KQU1 261636Z 18012KT 30/17 A3013 RMK A01 T02970168  RH  046%=      5-min Rain = 0
KQU1 261637Z 16012KT 30/17 A3013 RMK A01 T02970170  RH  046%=      5-min Rain = 0
KQU1 261638Z 16009KT 30/17 A3013 RMK A01 T02970169  RH  046%=      5-min Rain = 0
KQU1 261639Z 17009G15KT 30/17 A3013 RMK A01 T02970172  RH  047%=      5-min Rain = 0
KQU1 261640Z 16007KT 30/17 A3013 RMK A01 T02970170  RH  046%=      5-min Rain = 0
KQU1 261641Z 17007KT 30/17 A3013 RMK A01 T02980170  RH  046%=      5-min Rain = 0
KQU1 261642Z 19008KT 30/17 A3013 RMK A01 T02980170  RH  046%=      5-min Rain = 0
KQU1 261643Z 19007KT 30/17 A3013 RMK A01 T03000174  RH  047%=      5-min Rain = 0
KQU1 261644Z 21010KT 30/17 A3013 RMK A01 T03020173  RH  046%=      5-min Rain = 0
KQU1 261645Z 21010KT 30/17 A3013 RMK A01 T03020167  RH  044%=      5-min Rain = 0
KQU1 261646Z 21010KT 30/17 A3013 RMK A01 T03020168  RH  045%=      5-min Rain = 0
KQU1 261647Z 21008KT 30/17 A3013 RMK A01 T03010167  RH  044%=      5-min Rain = 0
KQU1 261648Z 21010KT 30/17 A3013 RMK A01 T03000168  RH  045%=      5-min Rain = 0
KQU1 261649Z 21008G13KT 30/17 A3013 RMK A01 T03000170  RH  045%=      5-min Rain = 0
KQU1 261650Z 19011KT 30/17 A3013 RMK A01 T03030166  RH  044%=      5-min Rain = 0
KQU1 261651Z 20010KT 30/16 A3013 RMK A01 T03040161  RH  042%=      5-min Rain = 0
KQU1 261652Z 22010KT 30/16 A3013 RMK A01 T03040162  RH  042%=      5-min Rain = 0
KQU1 261653Z 22010KT 30/16 A3013 RMK A01 T03030158  RH  042%=      5-min Rain = 0
KQU1 261654Z 22007KT 30/16 A3012 RMK A01 T03010159  RH  042%=      5-min Rain = 0
KQU1 261655Z 21008G13KT 30/16 A3012 RMK A01 T03020164  RH  044%=      5-min Rain = 0
KQU1 261656Z 21014G19KT 30/16 A3012 RMK A01 T03020164  RH  043%=      5-min Rain = 0
KQU1 261657Z 19012KT 30/17 A3012 RMK A01 T03030167  RH  044%=      5-min Rain = 0
KQU1 261658Z 21013KT 31/17 A3012 RMK A01 T03050166  RH  043%=      5-min Rain = 0
KQU1 261659Z 21012KT 31/17 A3012 RMK A01 T03060166  RH  043%=      5-min Rain = 0
KQU1 261700Z 22011KT 31/16 A3012 RMK A01 T03050163  RH  042%=      5-min Rain = 0
KQU1 261701Z 20009KT 30/16 A3012 RMK A01 T03020161  RH  043%=      5-min Rain = 0
KQU1 261702Z 20008KT 30/16 A3012 RMK A01 T03000164  RH  044%=      5-min Rain = 0
KQU1 261703Z 21010KT 30/16 A3012 RMK A01 T03010163  RH  044%=      5-min Rain = 0
KQU1 261704Z 19009KT 30/17 A3012 RMK A01 T03010166  RH  044%=      5-min Rain = 0
KQU1 261705Z 18010KT 30/17 A3012 RMK A01 T03030167  RH  044%=      5-min Rain = 0
KQU1 261706Z 17012KT 30/17 A3012 RMK A01 T03040169  RH  044%=      5-min Rain = 0
KQU1 261707Z 18008KT 30/17 A3012 RMK A01 T03040165  RH  043%=      5-min Rain = 0
KQU1 261708Z 20010KT 31/16 A3012 RMK A01 T03050162  RH  042%=      5-min Rain = 0
KQU1 261709Z 21011G16KT 31/17 A3012 RMK A01 T03060165  RH  043%=      5-min Rain = 0
KQU1 261710Z 20014KT 31/16 A3012 RMK A01 T03080161  RH  041%=      5-min Rain = 0
KQU1 261711Z 19010KT 31/16 A3012 RMK A01 T03060157  RH  040%=      5-min Rain = 0
KQU1 261712Z 20008KT 31/16 A3012 RMK A01 T03050162  RH  042%=      5-min Rain = 0
KQU1 261713Z 19011KT 31/16 A3012 RMK A01 T03060163  RH  042%=      5-min Rain = 0
KQU1 261714Z 20009G14KT 31/16 A3012 RMK A01 T03060162  RH  042%=      5-min Rain = 0
KQU1 261715Z 21010KT 31/17 A3012 RMK A01 T03060165  RH  043%=      5-min Rain = 0
KQU1 261716Z 20008KT 31/17 A3012 RMK A01 T03070166  RH  043%=      5-min Rain = 0
KQU1 261717Z 22011KT 31/16 A3012 RMK A01 T03080162  RH  041%=      5-min Rain = 0
KQU1 261718Z 18013KT 31/17 A3012 RMK A01 T03100170  RH  043%=      5-min Rain = 0
KQU1 261719Z 18013KT 31/16 A3012 RMK A01 T03110159  RH  040%=      5-min Rain = 0
KQU1 261720Z 18011KT 31/16 A3012 RMK A01 T03110161  RH  040%=      5-min Rain = 0
KQU1 261721Z 16016KT 31/16 A3012 RMK A01 T03120157  RH  039%=      5-min Rain = 0
KQU1 261722Z 16018KT 31/15 A3012 RMK A01 T03110151  RH  038%=      5-min Rain = 0
KQU1 261723Z 17014KT 31/15 A3012 RMK A01 T03100153  RH  039%=      5-min Rain = 0
KQU1 261724Z 19013KT 31/16 A3012 RMK A01 T03100156  RH  040%=      5-min Rain = 0
KQU1 261725Z 17011KT 31/16 A3012 RMK A01 T03100155  RH  039%=      5-min Rain = 0
KQU1 261726Z 19011KT 31/16 A3012 RMK A01 T03100155  RH  039%=      5-min Rain = 0
KQU1 261727Z 19011KT 31/16 A3012 RMK A01 T03100156  RH  039%=      5-min Rain = 0
KQU1 261728Z 17012KT 31/16 A3012 RMK A01 T03110155  RH  039%=      5-min Rain = 0
KQU1 261729Z 16011KT 31/16 A3012 RMK A01 T03100162  RH  041%=      5-min Rain = 0
KQU1 261730Z 17009KT 31/16 A3012 RMK A01 T03100157  RH  040%=      5-min Rain = 0
KQU1 261731Z 16009KT 31/16 A3011 RMK A01 T03080155  RH  040%=      5-min Rain = 0
KQU1 261732Z 17009KT 31/16 A3011 RMK A01 T03070157  RH  040%=      5-min Rain = 0
KQU1 261733Z 17011KT 31/16 A3011 RMK A01 T03070159  RH  041%=      5-min Rain = 0
KQU1 261734Z 17011KT 31/16 A3011 RMK A01 T03070156  RH  040%=      5-min Rain = 0
KQU1 261735Z 16011KT 31/16 A3011 RMK A01 T03090159  RH  041%=      5-min Rain = 0
KQU1 261736Z 17011KT 31/15 A3011 RMK A01 T03090150  RH  038%=      5-min Rain = 0
KQU1 261737Z 17011G16KT 31/15 A3011 RMK A01 T03090150  RH  038%=      5-min Rain = 0
KQU1 261738Z 18012KT 31/15 A3011 RMK A01 T03100148  RH  037%=      5-min Rain = 0
KQU1 261739Z 18010KT 31/15 A3011 RMK A01 T03110150  RH  038%=      5-min Rain = 0
KQU1 261740Z 18014KT 31/15 A3011 RMK A01 T03110151  RH  038%=      5-min Rain = 0
KQU1 261741Z 17016KT 31/15 A3011 RMK A01 T03120147  RH  037%=      5-min Rain = 0
KQU1 261742Z 16014KT 31/15 A3011 RMK A01 T03130149  RH  037%=      5-min Rain = 0
KQU1 261743Z 16013KT 31/15 A3011 RMK A01 T03130147  RH  036%=      5-min Rain = 0
KQU1 261744Z 16013G18KT 31/15 A3011 RMK A01 T03140148  RH  037%=      5-min Rain = 0
KQU1 261745Z 18012KT 31/15 A3011 RMK A01 T03130148  RH  037%=      5-min Rain = 0
KQU1 261746Z 15013KT 31/15 A3011 RMK A01 T03140152  RH  038%=      5-min Rain = 0
KQU1 261747Z 16012KT 31/15 A3011 RMK A01 T03140149  RH  037%=      5-min Rain = 0
KQU1 261748Z 16009KT 31/14 A3011 RMK A01 T03140144  RH  036%=      5-min Rain = 0
KQU1 261749Z 16013KT 31/16 A3011 RMK A01 T03140155  RH  038%=      5-min Rain = 0
KQU1 261750Z 17011KT 32/15 A3011 RMK A01 T03150148  RH  036%=      5-min Rain = 0
KQU1 261751Z 16011KT 32/15 A3011 RMK A01 T03150147  RH  036%=      5-min Rain = 0
KQU1 261752Z 16012KT 32/15 A3011 RMK A01 T03160153  RH  037%=      5-min Rain = 0
KQU1 261753Z 15012KT 32/15 A3011 RMK A01 T03170148  RH  036%=      5-min Rain = 0
KQU1 261754Z 16014G23KT 32/15 A3011 RMK A01 T03180148  RH  036%=      5-min Rain = 0
KQU1 261755Z 20016KT 32/14 A3011 RMK A01 T03190143  RH  034%=      5-min Rain = 0
KQU1 261756Z 20016KT 32/14 A3011 RMK A01 T03210140  RH  033%=      5-min Rain = 0
KQU1 261757Z 20013KT 32/14 A3011 RMK A01 T03210138  RH  033%=      5-min Rain = 0
KQU1 261758Z 20011KT 32/14 A3011 RMK A01 T03200137  RH  033%=      5-min Rain = 0
KQU1 261759Z 20011KT 32/14 A3011 RMK A01 T03200138  RH  033%=      5-min Rain = 0
KQU1 261800Z 19011KT 32/14 A3011 RMK A01 T03210139  RH  033%=      5-min Rain = 0
KQU1 261801Z 19012G21KT 32/14 A3011 RMK A01 T03220142  RH  034%=      5-min Rain = 0
KQU1 261802Z 19017KT 32/14 A3011 RMK A01 T03240138  RH  032%=      5-min Rain = 0
KQU1 261803Z 20014KT 32/14 A3011 RMK A01 T03240136  RH  032%=      5-min Rain = 0
KQU1 261804Z 19012G18KT 32/14 A3011 RMK A01 T03230140  RH  033%=      5-min Rain = 0
KQU1 261805Z 17015KT 32/14 A3011 RMK A01 T03220139  RH  033%=      5-min Rain = 0
KQU1 261806Z 18012KT 32/14 A3011 RMK A01 T03200141  RH  034%=      5-min Rain = 0
KQU1 261807Z 19010KT 32/14 A3011 RMK A01 T03210138  RH  033%=      5-min Rain = 0
KQU1 261808Z 18009KT 32/14 A3011 RMK A01 T03210138  RH  033%=      5-min Rain = 0
KQU1 261809Z 18010G16KT 32/14 A301 RMK A01 T03220141  RH  034%=      5-min Rain = 0
KQU1 261810Z 20011KT 32/14 A301 RMK A01 T03220138  RH  033%=      5-min Rain = 0
KQU1 261811Z 19014KT 32/14 A301 RMK A01 T03240139  RH  033%=      5-min Rain = 0
KQU1 261812Z 19012G17KT 33/14 A301 RMK A01 T03260143  RH  033%=      5-min Rain = 0
KQU1 261813Z 18013KT 33/15 A3011 RMK A01 T03280145  RH  033%=      5-min Rain = 0
KQU1 261814Z 18014KT 33/14 A3011 RMK A01 T03270135  RH  031%=      5-min Rain = 0
KQU1 261815Z 18010KT 33/14 A3011 RMK A01 T03260139  RH  032%=      5-min Rain = 0
KQU1 261816Z 19013KT 33/13 A3011 RMK A01 T03270133  RH  031%=      5-min Rain = 0
KQU1 261817Z 20012KT 33/13 A301 RMK A01 T03260132  RH  031%=      5-min Rain = 0
KQU1 261818Z 20015KT 33/14 A301 RMK A01 T03260135  RH  031%=      5-min Rain = 0
KQU1 261819Z 18010KT 33/14 A3011 RMK A01 T03270139  RH  032%=      5-min Rain = 0
KQU1 261820Z 17011KT 33/14 A3011 RMK A01 T03280144  RH  033%=      5-min Rain = 0
KQU1 261821Z 17014KT 33/14 A3011 RMK A01 T03280143  RH  033%=      5-min Rain = 0
KQU1 261822Z 16012KT 33/14 A3011 RMK A01 T03270140  RH  032%=      5-min Rain = 0
KQU1 261823Z 15009KT 33/14 A3011 RMK A01 T03260144  RH  033%=      5-min Rain = 0
KQU1 261824Z 15012G19KT 33/14 A3011 RMK A01 T03250140  RH  033%=      5-min Rain = 0
KQU1 261825Z 16016KT 33/14 A301 RMK A01 T03250137  RH  032%=      5-min Rain = 0
KQU1 261826Z 16014KT 32/14 A301 RMK A01 T03240142  RH  033%=      5-min Rain = 0
KQU1 261827Z 14016KT 32/14 A3011 RMK A01 T03240139  RH  033%=      5-min Rain = 0
KQU1 261828Z 15013KT 32/14 A3011 RMK A01 T03240141  RH  033%=      5-min Rain = 0
KQU1 261829Z 16012KT 32/14 A3011 RMK A01 T03240142  RH  033%=      5-min Rain = 0
KQU1 261830Z 15015KT 33/14 A301 RMK A01 T03250144  RH  033%=      5-min Rain = 0
KQU1 261831Z 15017G22KT 33/14 A301 RMK A01 T03270144  RH  033%=      5-min Rain = 0
KQU1 261832Z 16015G20KT 33/14 A3011 RMK A01 T03270140  RH  032%=      5-min Rain = 0
KQU1 261833Z 16015KT 33/14 A3011 RMK A01 T03260138  RH  032%=      5-min Rain = 0
KQU1 261834Z 16012KT 33/14 A3011 RMK A01 T03260144  RH  033%=      5-min Rain = 0
KQU1 261835Z 15013KT 33/14 A3011 RMK A01 T03260143  RH  033%=      5-min Rain = 0
KQU1 261836Z 15014KT 33/14 A3011 RMK A01 T03260141  RH  033%=      5-min Rain = 0
KQU1 261837Z 15013G18KT 33/14 A3011 RMK A01 T03250140  RH  033%=      5-min Rain = 0
KQU1 261838Z 17011KT 33/14 A3011 RMK A01 T03250144  RH  034%=      5-min Rain = 0
KQU1 261839Z 16009KT 32/14 A301 RMK A01 T03240142  RH  033%=      5-min Rain = 0
KQU1 261840Z 15009KT 33/14 A301 RMK A01 T03250143  RH  033%=      5-min Rain = 0
KQU1 261841Z 15013KT 33/15 A301 RMK A01 T03250151  RH  035%=      5-min Rain = 0
KQU1 261842Z 15016KT 33/14 A301 RMK A01 T03270143  RH  033%=      5-min Rain = 0
KQU1 261843Z 16016KT 33/14 A301 RMK A01 T03270140  RH  032%=      5-min Rain = 0
KQU1 261844Z 15016KT 33/14 A301 RMK A01 T03260135  RH  031%=      5-min Rain = 0
KQU1 261845Z 14014KT 33/14 A301 RMK A01 T03260138  RH  032%=      5-min Rain = 0
KQU1 261846Z 14014KT 33/14 A301 RMK A01 T03260141  RH  033%=      5-min Rain = 0
KQU1 261847Z 15014KT 33/14 A301 RMK A01 T03260138  RH  032%=      5-min Rain = 0
KQU1 261848Z 14013KT 33/14 A301 RMK A01 T03260139  RH  032%=      5-min Rain = 0
KQU1 261849Z 14012KT 33/14 A301 RMK A01 T03260144  RH  033%=      5-min Rain = 0
KQU1 261850Z 12012KT 33/14 A301 RMK A01 T03260142  RH  033%=      5-min Rain = 0
KQU1 261851Z 13010KT 33/14 A301 RMK A01 T03250139  RH  033%=      5-min Rain = 0
KQU1 261852Z 14009KT 33/15 A301 RMK A01 T03250147  RH  034%=      5-min Rain = 0
KQU1 261853Z 17015KT 33/15 A301 RMK A01 T03260150  RH  035%=      5-min Rain = 0
KQU1 261854Z 18014KT 33/14 A301 RMK A01 T03270141  RH  033%=      5-min Rain = 0
KQU1 261855Z 16015G20KT 33/14 A301 RMK A01 T03270142  RH  033%=      5-min Rain = 0
KQU1 261856Z 15016KT 33/14 A301 RMK A01 T03260144  RH  033%=      5-min Rain = 0
KQU1 261857Z 14013KT 33/15 A301 RMK A01 T03260146  RH  034%=      5-min Rain = 0
KQU1 261858Z 15014KT 33/15 A301 RMK A01 T03260147  RH  034%=      5-min Rain = 0
KQU1 261859Z 16010KT 33/15 A301 RMK A01 T03270150  RH  035%=      5-min Rain = 0
KQU1 261900Z 17012KT 33/15 A301 RMK A01 T03270148  RH  034%=      5-min Rain = 0
KQU1 261901Z 16014KT 33/15 A301 RMK A01 T03280146  RH  033%=      5-min Rain = 0
KQU1 261902Z 14015G20KT 33/15 A301 RMK A01 T03280149  RH  034%=      5-min Rain = 0
KQU1 261903Z 14015KT 33/15 A301 RMK A01 T03280148  RH  034%=      5-min Rain = 0
KQU1 261904Z 15019KT 33/15 A301 RMK A01 T03280145  RH  033%=      5-min Rain = 0
KQU1 261905Z 15016KT 33/14 A301 RMK A01 T03270143  RH  033%=      5-min Rain = 0
KQU1 261906Z 16011KT 33/15 A301 RMK A01 T03260150  RH  035%=      5-min Rain = 0
KQU1 261907Z 14014KT 33/15 A301 RMK A01 T03270147  RH  034%=      5-min Rain = 0
KQU1 261908Z 15010KT 33/15 A301 RMK A01 T03270150  RH  034%=      5-min Rain = 0
KQU1 261909Z 13010KT 33/16 A301 RMK A01 T03280157  RH  036%=      5-min Rain = 0
KQU1 261910Z 16012KT 33/15 A301 RMK A01 T03290152  RH  034%=      5-min Rain = 0
KQU1 261911Z 19010KT 33/14 A301 RMK A01 T03300141  RH  032%=      5-min Rain = 0
KQU1 261912Z 17010G18KT 33/15 A301 RMK A01 T03310148  RH  033%=      5-min Rain = 0
KQU1 261913Z 16015KT 33/15 A301 RMK A01 T03310146  RH  033%=      5-min Rain = 0
KQU1 261914Z 15011KT 33/15 A301 RMK A01 T03300151  RH  034%=      5-min Rain = 0
KQU1 261915Z 14012G17KT 33/15 A301 RMK A01 T03300152  RH  034%=      5-min Rain = 0
KQU1 261916Z 14015KT 33/15 A301 RMK A01 T03300147  RH  033%=      5-min Rain = 0
KQU1 261917Z 14014KT 33/15 A301 RMK A01 T03290149  RH  034%=      5-min Rain = 0
KQU1 261918Z 14015KT 33/15 A301 RMK A01 T03290153  RH  035%=      5-min Rain = 0
KQU1 261919Z 16013KT 33/15 A301 RMK A01 T03290153  RH  035%=      5-min Rain = 0
KQU1 261920Z 17012KT 33/15 A301 RMK A01 T03290148  RH  034%=      5-min Rain = 0
KQU1 261921Z 18014KT 33/14 A3009 RMK A01 T03280142  RH  032%=      5-min Rain = 0
KQU1 261922Z 17013G23KT 33/15 A3009 RMK A01 T03280145  RH  033%=      5-min Rain = 0
KQU1 261923Z 15017KT 33/15 A3009 RMK A01 T03280153  RH  035%=      5-min Rain = 0
KQU1 261924Z 13017KT 33/15 A3009 RMK A01 T03280150  RH  034%=      5-min Rain = 0
KQU1 261925Z 14016KT 33/15 A3009 RMK A01 T03270151  RH  035%=      5-min Rain = 0
KQU1 261926Z 15018KT 33/15 A3009 RMK A01 T03270154  RH  035%=      5-min Rain = 0
KQU1 261927Z 15017KT 33/15 A3009 RMK A01 T03260154  RH  035%=      5-min Rain = 0
KQU1 261928Z 16019KT 33/16 A3009 RMK A01 T03270155  RH  036%=      5-min Rain = 0
KQU1 261929Z 16017KT 33/15 A3009 RMK A01 T03250150  RH  035%=      5-min Rain = 0
KQU1 261930Z 15019KT 33/15 A3009 RMK A01 T03260154  RH  036%=      5-min Rain = 0
KQU1 261931Z 16017G22KT 33/15 A3009 RMK A01 T03260154  RH  036%=      5-min Rain = 0
KQU1 261932Z 16017KT 33/15 A3009 RMK A01 T03250152  RH  035%=      5-min Rain = 0
KQU1 261933Z 17013KT 33/15 A3009 RMK A01 T03250154  RH  036%=      5-min Rain = 0
KQU1 261934Z 17013KT 33/15 A3009 RMK A01 T03250154  RH  036%=      5-min Rain = 0
KQU1 261935Z 17015KT 33/16 A3009 RMK A01 T03250155  RH  036%=      5-min Rain = 0
KQU1 261936Z 17014KT 32/16 A3009 RMK A01 T03240155  RH  036%=      5-min Rain = 0
KQU1 261937Z 16014G19KT 33/16 A3009 RMK A01 T03260163  RH  038%=      5-min Rain = 0
KQU1 261938Z 16018KT 33/16 A3009 RMK A01 T03280159  RH  036%=      5-min Rain = 0
KQU1 261939Z 17014G19KT 33/16 A3009 RMK A01 T03280156  RH  036%=      5-min Rain = 0
KQU1 261940Z 18014KT 33/15 A3009 RMK A01 T03270148  RH  034%=      5-min Rain = 0
KQU1 261941Z 18013KT 33/15 A3009 RMK A01 T03260147  RH  034%=      5-min Rain = 0
KQU1 261942Z 18014G19KT 33/15 A3009 RMK A01 T03260151  RH  035%=      5-min Rain = 0
KQU1 261943Z 18017KT 33/15 A3009 RMK A01 T03260150  RH  035%=      5-min Rain = 0
KQU1 261944Z 18012KT 33/15 A3009 RMK A01 T03260150  RH  035%=      5-min Rain = 0
KQU1 261945Z 15014KT 33/16 A3009 RMK A01 T03270158  RH  036%=      5-min Rain = 0
KQU1 261946Z 14011KT 33/16 A3009 RMK A01 T03280162  RH  037%=      5-min Rain = 0
KQU1 261947Z 13012KT 33/16 A3009 RMK A01 T03280157  RH  036%=      5-min Rain = 0
KQU1 261948Z 13015KT 33/16 A3009 RMK A01 T03280159  RH  036%=      5-min Rain = 0
KQU1 261949Z 16015KT 33/16 A3009 RMK A01 T03290159  RH  036%=      5-min Rain = 0
KQU1 261950Z 16016KT 33/15 A3009 RMK A01 T03290154  RH  035%=      5-min Rain = 0
KQU1 261951Z 15015KT 33/15 A3009 RMK A01 T03290153  RH  035%=      5-min Rain = 0
KQU1 261952Z 16014KT 33/16 A3009 RMK A01 T03280156  RH  036%=      5-min Rain = 0
KQU1 261953Z 17014KT 33/16 A3009 RMK A01 T03290157  RH  036%=      5-min Rain = 0
KQU1 261954Z 18014KT 33/15 A3009 RMK A01 T03290153  RH  035%=      5-min Rain = 0
KQU1 261955Z 16012G18KT 33/16 A3009 RMK A01 T03280155  RH  035%=      5-min Rain = 0
KQU1 261956Z 15016G22KT 33/16 A3009 RMK A01 T03280161  RH  037%=      5-min Rain = 0
KQU1 261957Z 17012G17KT 33/16 A3009 RMK A01 T03270156  RH  036%=      5-min Rain = 0
KQU1 261958Z 16011G16KT 33/16 A3009 RMK A01 T03260159  RH  036%=      5-min Rain = 0
KQU1 261959Z 15016G25KT 33/15 A3009 RMK A01 T03260154  RH  036%=      5-min Rain = 0
KQU1 262000Z 16023KT 33/15 A3009 RMK A01 T03260152  RH  035%=      5-min Rain = 0
KQU1 262001Z 17017KT 33/16 A3009 RMK A01 T03270158  RH  036%=      5-min Rain = 0
KQU1 262002Z 16019KT 33/16 A3009 RMK A01 T03290160  RH  037%=      5-min Rain = 0
KQU1 262003Z 16015G20KT 33/16 A3009 RMK A01 T03290160  RH  036%=      5-min Rain = 0
KQU1 262004Z 16014KT 33/16 A3009 RMK A01 T03290159  RH  036%=      5-min Rain = 0
KQU1 262005Z 16015KT 33/16 A3009 RMK A01 T03290158  RH  036%=      5-min Rain = 0
KQU1 262006Z 16012KT 33/16 A3009 RMK A01 T03270159  RH  037%=      5-min Rain = 0
KQU1 262007Z 15013G18KT 33/17 A3009 RMK A01 T03280167  RH  038%=      5-min Rain = 0
KQU1 262008Z 15015KT 33/16 A3009 RMK A01 T03280156  RH  036%=      5-min Rain = 0
KQU1 262009Z 14015KT 33/16 A3009 RMK A01 T03270161  RH  037%=      5-min Rain = 0
KQU1 262010Z 16018G24KT 33/16 A3009 RMK A01 T03270163  RH  037%=      5-min Rain = 0
KQU1 262011Z 18017KT 33/16 A3009 RMK A01 T03280156  RH  036%=      5-min Rain = 0
KQU1 262012Z 18016KT 33/15 A3009 RMK A01 T03270150  RH  034%=      5-min Rain = 0
KQU1 262013Z 17008G14KT 33/15 A3009 RMK A01 T03260152  RH  035%=      5-min Rain = 0
KQU1 262014Z 17008G13KT 33/16 A3009 RMK A01 T03270158  RH  036%=      5-min Rain = 0
KQU1 262015Z 15014KT 33/16 A3009 RMK A01 T03270157  RH  036%=      5-min Rain = 0
KQU1 262016Z 15015KT 33/16 A3009 RMK A01 T03280164  RH  037%=      5-min Rain = 0
KQU1 262017Z 15014G19KT 33/16 A3009 RMK A01 T03290160  RH  036%=      5-min Rain = 0
KQU1 262018Z 14014KT 33/16 A3009 RMK A01 T03280163  RH  037%=      5-min Rain = 0
KQU1 262019Z 15015KT 33/16 A3009 RMK A01 T03290161  RH  037%=      5-min Rain = 0
KQU1 262020Z 16016KT 33/16 A3009 RMK A01 T03290155  RH  035%=      5-min Rain = 0
KQU1 262021Z 15018KT 33/15 A3009 RMK A01 T03290152  RH  035%=      5-min Rain = 0
KQU1 262022Z 16017KT 33/15 A3009 RMK A01 T03290152  RH  034%=      5-min Rain = 0
KQU1 262023Z 15014KT 33/16 A3009 RMK A01 T03290156  RH  035%=      5-min Rain = 0
KQU1 262024Z 16014KT 33/15 A3009 RMK A01 T03300153  RH  035%=      5-min Rain = 0
KQU1 262025Z 16012KT 33/15 A3009 RMK A01 T03290150  RH  034%=      5-min Rain = 0
KQU1 262026Z 16013G21KT 33/15 A3009 RMK A01 T03290154  RH  035%=      5-min Rain = 0
KQU1 262027Z 16013G18KT 33/15 A3009 RMK A01 T03290149  RH  034%=      5-min Rain = 0
KQU1 262028Z 15010KT 33/15 A3009 RMK A01 T03280153  RH  035%=      5-min Rain = 0
KQU1 262029Z 15012KT 33/15 A3009 RMK A01 T03280153  RH  035%=      5-min Rain = 0
KQU1 262030Z 16010KT 33/16 A3009 RMK A01 T03280157  RH  036%=      5-min Rain = 0
KQU1 262031Z 16019KT 33/16 A3009 RMK A01 T03290158  RH  036%=      5-min Rain = 0
KQU1 262032Z 16019KT 33/16 A3009 RMK A01 T03280157  RH  036%=      5-min Rain = 0
KQU1 262033Z 15014KT 33/16 A3009 RMK A01 T03280157  RH  036%=      5-min Rain = 0
KQU1 262034Z 16014G19KT 33/16 A3009 RMK A01 T03280162  RH  037%=      5-min Rain = 0
KQU1 262035Z 16016KT 33/16 A3009 RMK A01 T03290161  RH  036%=      5-min Rain = 0
KQU1 262036Z 16012KT 33/16 A3009 RMK A01 T03280156  RH  036%=      5-min Rain = 0
KQU1 262037Z 16012KT 33/16 A3008 RMK A01 T03280159  RH  036%=      5-min Rain = 0
KQU1 262038Z 16015G21KT 33/17 A3008 RMK A01 T03290165  RH  038%=      5-min Rain = 0
KQU1 262039Z 16016KT 33/16 A3009 RMK A01 T03290159  RH  036%=      5-min Rain = 0
KQU1 262040Z 15013KT 33/16 A3008 RMK A01 T03290155  RH  035%=      5-min Rain = 0
KQU1 262041Z 15012KT 33/16 A3008 RMK A01 T03280158  RH  036%=      5-min Rain = 0
KQU1 262042Z 15012KT 33/16 A3008 RMK A01 T03290162  RH  037%=      5-min Rain = 0
KQU1 262043Z 14014KT 33/16 A3008 RMK A01 T03300161  RH  036%=      5-min Rain = 0
KQU1 262044Z 13015KT 33/16 A3008 RMK A01 T03300158  RH  036%=      5-min Rain = 0
KQU1 262045Z 15014KT 33/16 A3008 RMK A01 T03300158  RH  036%=      5-min Rain = 0
KQU1 262046Z 14017KT 33/16 A3008 RMK A01 T03310157  RH  035%=      5-min Rain = 0
KQU1 262047Z 14014KT 33/16 A3008 RMK A01 T03300157  RH  035%=      5-min Rain = 0
KQU1 262048Z 14015KT 33/16 A3008 RMK A01 T03300159  RH  036%=      5-min Rain = 0
KQU1 262049Z 16016G21KT 33/16 A3008 RMK A01 T03310159  RH  036%=      5-min Rain = 0
KQU1 262050Z 15017KT 33/16 A3008 RMK A01 T03310161  RH  036%=      5-min Rain = 0
KQU1 262051Z 15016KT 33/16 A3008 RMK A01 T03320158  RH  035%=      5-min Rain = 0
KQU1 262052Z 15015KT 33/16 A3008 RMK A01 T03310157  RH  035%=      5-min Rain = 0
KQU1 262053Z 18016G21KT 33/15 A3008 RMK A01 T03310154  RH  035%=      5-min Rain = 0
KQU1 262054Z 18012KT 33/15 A3008 RMK A01 T03310150  RH  034%=      5-min Rain = 0
KQU1 262055Z 19011KT 33/15 A3008 RMK A01 T03310150  RH  034%=      5-min Rain = 0
KQU1 262056Z 15011KT 33/16 A3008 RMK A01 T03320161  RH  036%=      5-min Rain = 0
KQU1 262057Z 16012KT 33/16 A3008 RMK A01 T03330160  RH  035%=      5-min Rain = 0
KQU1 262058Z 16014KT 33/16 A3008 RMK A01 T03330160  RH  035%=      5-min Rain = 0
KQU1 262059Z 15013G18KT 33/16 A3008 RMK A01 T03320158  RH  035%=      5-min Rain = 0
KQU1 262100Z 16013KT 33/15 A3008 RMK A01 T03310153  RH  034%=      5-min Rain = 0
KQU1 262101Z 14013KT 33/16 A3008 RMK A01 T03310157  RH  035%=      5-min Rain = 0
KQU1 262102Z 17012KT 33/15 A3008 RMK A01 T03310154  RH  035%=      5-min Rain = 0
KQU1 262103Z 17013KT 33/16 A3008 RMK A01 T03320163  RH  036%=      5-min Rain = 0
KQU1 262104Z 17017KT 33/16 A3008 RMK A01 T03320159  RH  035%=      5-min Rain = 0
KQU1 262105Z 18016KT 33/15 A3008 RMK A01 T03310153  RH  034%=      5-min Rain = 0
KQU1 262106Z 18016KT 33/15 A3008 RMK A01 T03310151  RH  034%=      5-min Rain = 0
KQU1 262107Z 18013KT 33/15 A3008 RMK A01 T03310154  RH  034%=      5-min Rain = 0
KQU1 262108Z 16015KT 33/16 A3008 RMK A01 T03320161  RH  036%=      5-min Rain = 0
KQU1 262109Z 17020KT 33/16 A3008 RMK A01 T03320157  RH  035%=      5-min Rain = 0
KQU1 262110Z 18019KT 33/15 A3007 RMK A01 T03300153  RH  034%=      5-min Rain = 0
KQU1 262111Z 16016KT 33/16 A3008 RMK A01 T03300160  RH  036%=      5-min Rain = 0
KQU1 262112Z 17015G20KT 33/16 A3008 RMK A01 T03310160  RH  036%=      5-min Rain = 0
KQU1 262113Z 17019KT 33/15 A3008 RMK A01 T03310150  RH  034%=      5-min Rain = 0
KQU1 262114Z 17014KT 33/15 A3008 RMK A01 T03290153  RH  035%=      5-min Rain = 0
KQU1 262115Z 17013KT 33/16 A3007 RMK A01 T03290155  RH  035%=      5-min Rain = 0
KQU1 262116Z 16013KT 33/16 A3007 RMK A01 T03300155  RH  035%=      5-min Rain = 0
KQU1 262117Z 16012KT 33/16 A3007 RMK A01 T03310155  RH  035%=      5-min Rain = 0
KQU1 262118Z 17014KT 33/15 A3007 RMK A01 T03320153  RH  034%=      5-min Rain = 0
KQU1 262119Z 17011KT 33/16 A3007 RMK A01 T03340159  RH  035%=      5-min Rain = 0
KQU1 262120Z 15012KT 33/16 A3007 RMK A01 T03340160  RH  035%=      5-min Rain = 0
KQU1 262121Z 14014KT 33/16 A3007 RMK A01 T03340163  RH  036%=      5-min Rain = 0
KQU1 262122Z 16014KT 33/16 A3007 RMK A01 T03340156  RH  034%=      5-min Rain = 0
KQU1 262123Z 17018KT 33/15 A3007 RMK A01 T03330150  RH  033%=      5-min Rain = 0
KQU1 262124Z 17017KT 33/15 A3007 RMK A01 T03320150  RH  034%=      5-min Rain = 0
KQU1 262125Z 17019KT 33/15 A3007 RMK A01 T03310153  RH  034%=      5-min Rain = 0
KQU1 262126Z 17017KT 33/16 A3007 RMK A01 T03300155  RH  035%=      5-min Rain = 0
KQU1 262127Z 15019KT 33/16 A3007 RMK A01 T03300155  RH  035%=      5-min Rain = 0
KQU1 262128Z 14018KT 33/16 A3007 RMK A01 T03300155  RH  035%=      5-min Rain = 0
KQU1 262129Z 14016KT 33/16 A3007 RMK A01 T03290159  RH  036%=      5-min Rain = 0
KQU1 262130Z 14020KT 33/16 A3007 RMK A01 T03290159  RH  036%=      5-min Rain = 0
KQU1 262131Z 14019KT 33/16 A3007 RMK A01 T03290158  RH  036%=      5-min Rain = 0
KQU1 262132Z 14016G22KT 33/16 A3007 RMK A01 T03290162  RH  037%=      5-min Rain = 0
KQU1 262133Z 13021KT 33/16 A3007 RMK A01 T03300161  RH  036%=      5-min Rain = 0
KQU1 262134Z 15021G26KT 33/15 A3007 RMK A01 T03300152  RH  034%=      5-min Rain = 0
KQU1 262135Z 17017KT 33/15 A3007 RMK A01 T03300151  RH  034%=      5-min Rain = 0
KQU1 262136Z 17017KT 33/15 A3007 RMK A01 T03300149  RH  034%=      5-min Rain = 0
KQU1 262137Z 16018KT 33/15 A3007 RMK A01 T03300151  RH  034%=      5-min Rain = 0
KQU1 262138Z 15016KT 33/15 A3007 RMK A01 T03310151  RH  034%=      5-min Rain = 0
KQU1 262139Z 16016KT 33/15 A3007 RMK A01 T03300149  RH  034%=      5-min Rain = 0
KQU1 262140Z 15011KT 33/15 A3007 RMK A01 T03290153  RH  035%=      5-min Rain = 0
KQU1 262141Z 16014KT 33/16 A3007 RMK A01 T03300156  RH  035%=      5-min Rain = 0
KQU1 262142Z 16016KT 33/15 A3007 RMK A01 T03300151  RH  034%=      5-min Rain = 0
KQU1 262143Z 15013KT 33/15 A3007 RMK A01 T03300150  RH  034%=      5-min Rain = 0
KQU1 262144Z 16010G19KT 33/15 A3007 RMK A01 T03300154  RH  035%=      5-min Rain = 0
KQU1 262145Z 17019KT 33/15 A3007 RMK A01 T03300152  RH  034%=      5-min Rain = 0
KQU1 262146Z 17013G20KT 33/15 A3006 RMK A01 T03290150  RH  034%=      5-min Rain = 0
KQU1 262147Z 16016KT 33/15 A3006 RMK A01 T03280152  RH  035%=      5-min Rain = 0
KQU1 262148Z 16014KT 33/16 A3006 RMK A01 T03280155  RH  035%=      5-min Rain = 0
KQU1 262149Z 17016KT 33/16 A3006 RMK A01 T03280155  RH  035%=      5-min Rain = 0
KQU1 262150Z 16015KT 33/15 A3006 RMK A01 T03290153  RH  035%=      5-min Rain = 0
KQU1 262151Z 17014G21KT 33/15 A3006 RMK A01 T03290153  RH  035%=      5-min Rain = 0
KQU1 262152Z 17015G21KT 33/15 A3006 RMK A01 T03280151  RH  034%=      5-min Rain = 0
KQU1 262153Z 15011KT 33/16 A3006 RMK A01 T03300164  RH  037%=      5-min Rain = 0
KQU1 262154Z 16014KT 33/16 A3006 RMK A01 T03310157  RH  035%=      5-min Rain = 0
KQU1 262155Z 17015G20KT 33/15 A3006 RMK A01 T03320154  RH  034%=      5-min Rain = 0
KQU1 262156Z 16016KT 33/15 A3006 RMK A01 T03310149  RH  034%=      5-min Rain = 0
KQU1 262157Z 16014KT 33/15 A3006 RMK A01 T03310149  RH  033%=      5-min Rain = 0
KQU1 262158Z 16013KT 33/15 A3006 RMK A01 T03310153  RH  034%=      5-min Rain = 0
KQU1 262159Z 16015KT 33/15 A3006 RMK A01 T03310152  RH  034%=      5-min Rain = 0
KQU1 262200Z 16011KT 33/16 A3006 RMK A01 T03310156  RH  035%=      5-min Rain = 0
KQU1 262201Z 18013KT 33/15 A3006 RMK A01 T03320154  RH  034%=      5-min Rain = 0
KQU1 262202Z 18015KT 33/15 A3006 RMK A01 T03320150  RH  033%=      5-min Rain = 0
KQU1 262203Z 16017KT 33/15 A3006 RMK A01 T03320151  RH  034%=      5-min Rain = 0
KQU1 262204Z 15017KT 33/15 A3006 RMK A01 T03310154  RH  035%=      5-min Rain = 0
KQU1 262205Z 15017KT 33/15 A3006 RMK A01 T03310153  RH  034%=      5-min Rain = 0
KQU1 262206Z 15017KT 33/15 A3006 RMK A01 T03300152  RH  034%=      5-min Rain = 0
KQU1 262207Z 15015KT 33/15 A3006 RMK A01 T03300153  RH  034%=      5-min Rain = 0
KQU1 262208Z 14015KT 33/16 A3006 RMK A01 T03300160  RH  036%=      5-min Rain = 0
KQU1 262209Z 15019KT 33/16 A3006 RMK A01 T03300157  RH  035%=      5-min Rain = 0
KQU1 262210Z 15015KT 33/16 A3005 RMK A01 T03300156  RH  035%=      5-min Rain = 0
KQU1 262211Z 14018KT 33/16 A3005 RMK A01 T03300158  RH  036%=      5-min Rain = 0
KQU1 262212Z 16023G31KT 33/15 A3005 RMK A01 T03300152  RH  034%=      5-min Rain = 0
KQU1 262213Z 16016KT 33/15 A3005 RMK A01 T03290154  RH  035%=      5-min Rain = 0
KQU1 262214Z 16015KT 33/16 A3005 RMK A01 T03290160  RH  036%=      5-min Rain = 0
KQU1 262215Z 16013KT 33/16 A3005 RMK A01 T03290162  RH  037%=      5-min Rain = 0
KQU1 262216Z 15019KT 33/16 A3005 RMK A01 T03300160  RH  036%=      5-min Rain = 0
KQU1 262217Z 14020G26KT 33/16 A3005 RMK A01 T03300159  RH  036%=      5-min Rain = 0
KQU1 262218Z 14022KT 33/16 A3005 RMK A01 T03290157  RH  035%=      5-min Rain = 0
KQU1 262219Z 14021KT 33/16 A3005 RMK A01 T03290156  RH  035%=      5-min Rain = 0
KQU1 262220Z 15019KT 33/16 A3005 RMK A01 T03280155  RH  035%=      5-min Rain = 0
KQU1 262221Z 15017KT 33/15 A3005 RMK A01 T03280153  RH  035%=      5-min Rain = 0
KQU1 262222Z 15015KT 33/16 A3005 RMK A01 T03270156  RH  036%=      5-min Rain = 0
KQU1 262223Z 15017G23KT 33/16 A3005 RMK A01 T03280159  RH  036%=      5-min Rain = 0
KQU1 262224Z 15019KT 33/16 A3005 RMK A01 T03280159  RH  036%=      5-min Rain = 0
KQU1 262225Z 15020KT 33/16 A3005 RMK A01 T03280155  RH  035%=      5-min Rain = 0
KQU1 262226Z 14018KT 33/15 A3005 RMK A01 T03270152  RH  035%=      5-min Rain = 0
KQU1 262227Z 15017KT 33/15 A3005 RMK A01 T03260151  RH  035%=      5-min Rain = 0
KQU1 262228Z 14018KT 33/16 A3005 RMK A01 T03250156  RH  036%=      5-min Rain = 0
KQU1 262229Z 15018KT 33/16 A3005 RMK A01 T03250158  RH  037%=      5-min Rain = 0
KQU1 262230Z 15017KT 32/16 A3005 RMK A01 T03240156  RH  036%=      5-min Rain = 0
KQU1 262231Z 15016G21KT 32/16 A3005 RMK A01 T03240161  RH  038%=      5-min Rain = 0
KQU1 262232Z 13018G23KT 33/16 A3005 RMK A01 T03260160  RH  037%=      5-min Rain = 0
KQU1 262233Z 13019KT 33/16 A3005 RMK A01 T03260157  RH  036%=      5-min Rain = 0
KQU1 262234Z 14019KT 33/16 A3005 RMK A01 T03260156  RH  036%=      5-min Rain = 0
KQU1 262235Z 14019KT 33/16 A3005 RMK A01 T03260157  RH  036%=      5-min Rain = 0
KQU1 262236Z 14018G23KT 33/16 A3005 RMK A01 T03260157  RH  036%=      5-min Rain = 0
KQU1 262237Z 14015KT 33/16 A3005 RMK A01 T03260158  RH  036%=      5-min Rain = 0
KQU1 262238Z 14016KT 33/16 A3005 RMK A01 T03260157  RH  036%=      5-min Rain = 0
KQU1 262239Z 15016KT 33/16 A3005 RMK A01 T03260157  RH  036%=      5-min Rain = 0
KQU1 262240Z 15019G25KT 33/16 A3005 RMK A01 T03260160  RH  037%=      5-min Rain = 0
KQU1 262241Z 15018KT 33/16 A3005 RMK A01 T03260160  RH  037%=      5-min Rain = 0
KQU1 262242Z 15020KT 33/16 A3005 RMK A01 T03250156  RH  036%=      5-min Rain = 0
KQU1 262243Z 15020KT 32/15 A3005 RMK A01 T03230152  RH  036%=      5-min Rain = 0
KQU1 262244Z 15020KT 32/15 A3005 RMK A01 T03210153  RH  036%=      5-min Rain = 0
KQU1 262245Z 15019KT 32/15 A3005 RMK A01 T03210153  RH  036%=      5-min Rain = 0
KQU1 262246Z 15018KT 32/15 A3005 RMK A01 T03200154  RH  037%=      5-min Rain = 0
KQU1 262247Z 14018G23KT 32/16 A3005 RMK A01 T03210157  RH  037%=      5-min Rain = 0
KQU1 262248Z 14020KT 32/16 A3005 RMK A01 T03210156  RH  037%=      5-min Rain = 0
KQU1 262249Z 15019G24KT 32/16 A3005 RMK A01 T03220158  RH  037%=      5-min Rain = 0
KQU1 262250Z 15022KT 32/16 A3005 RMK A01 T03230158  RH  037%=      5-min Rain = 0
KQU1 262251Z 15020KT 32/16 A3005 RMK A01 T03230157  RH  037%=      5-min Rain = 0
KQU1 262252Z 15018KT 32/16 A3005 RMK A01 T03240161  RH  038%=      5-min Rain = 0
KQU1 262253Z 14019KT 33/16 A3005 RMK A01 T03250162  RH  038%=      5-min Rain = 0
KQU1 262254Z 14018G23KT 33/16 A3005 RMK A01 T03250161  RH  037%=      5-min Rain = 0
KQU1 262255Z 13018KT 33/16 A3004 RMK A01 T03250161  RH  037%=      5-min Rain = 0
KQU1 262256Z 13018KT 33/16 A3004 RMK A01 T03250161  RH  037%=      5-min Rain = 0
KQU1 262257Z 14020KT 33/16 A3004 RMK A01 T03260162  RH  037%=      5-min Rain = 0
KQU1 262258Z 15019G24KT 33/16 A3005 RMK A01 T03260159  RH  037%=      5-min Rain = 0
KQU1 262259Z 16018KT 33/16 A3005 RMK A01 T03260160  RH  037%=      5-min Rain = 0
KQU1 262300Z 16018KT 33/16 A3005 RMK A01 T03260155  RH  036%=      5-min Rain = 0
KQU1 262301Z 15016KT 33/16 A3005 RMK A01 T03250158  RH  037%=      5-min Rain = 0
KQU1 262302Z 15020KT 33/16 A3005 RMK A01 T03250158  RH  037%=      5-min Rain = 0
KQU1 262303Z 15021KT 33/16 A3005 RMK A01 T03250156  RH  036%=      5-min Rain = 0
KQU1 262304Z 15020KT 32/16 A3005 RMK A01 T03240155  RH  036%=      5-min Rain = 0
KQU1 262305Z 15021KT 32/16 A3005 RMK A01 T03230156  RH  036%=      5-min Rain = 0
KQU1 262306Z 16019KT 32/16 A3004 RMK A01 T03230156  RH  037%=      5-min Rain = 0
KQU1 262307Z 16019KT 32/16 A3004 RMK A01 T03230158  RH  037%=      5-min Rain = 0
KQU1 262308Z 15020KT 32/16 A3004 RMK A01 T03230157  RH  037%=      5-min Rain = 0
KQU1 262309Z 15017KT 32/16 A3004 RMK A01 T03230160  RH  038%=      5-min Rain = 0
KQU1 262310Z 15016KT 32/16 A3004 RMK A01 T03230159  RH  037%=      5-min Rain = 0
KQU1 262311Z 14016KT 32/16 A3004 RMK A01 T03230158  RH  037%=      5-min Rain = 0
KQU1 262312Z 14015KT 32/16 A3004 RMK A01 T03230160  RH  038%=      5-min Rain = 0
KQU1 262313Z 14015KT 32/16 A3004 RMK A01 T03240160  RH  037%=      5-min Rain = 0
KQU1 262314Z 15019KT 32/16 A3004 RMK A01 T03240160  RH  037%=      5-min Rain = 0
KQU1 262315Z 15019G25KT 32/16 A3004 RMK A01 T03230160  RH  038%=      5-min Rain = 0
KQU1 262316Z 15017KT 32/16 A3004 RMK A01 T03230159  RH  037%=      5-min Rain = 0
KQU1 262317Z 14020KT 32/16 A3004 RMK A01 T03230160  RH  038%=      5-min Rain = 0
KQU1 262318Z 14021KT 32/16 A3004 RMK A01 T03230159  RH  037%=      5-min Rain = 0
KQU1 262319Z 14022KT 32/16 A3004 RMK A01 T03230159  RH  037%=      5-min Rain = 0
KQU1 262320Z 16017KT 32/16 A3004 RMK A01 T03230162  RH  038%=      5-min Rain = 0
KQU1 262321Z 15018KT 32/17 A3004 RMK A01 T03230165  RH  039%=      5-min Rain = 0
KQU1 262322Z 15019KT 32/16 A3004 RMK A01 T03230162  RH  038%=      5-min Rain = 0
KQU1 262323Z 15019KT 32/16 A3004 RMK A01 T03220163  RH  038%=      5-min Rain = 0
KQU1 262324Z 16017KT 32/16 A3004 RMK A01 T03220164  RH  039%=      5-min Rain = 0
KQU1 262325Z 16021KT 32/16 A3004 RMK A01 T03220157  RH  037%=      5-min Rain = 0
KQU1 262326Z 16018KT 32/16 A3004 RMK A01 T03210156  RH  037%=      5-min Rain = 0
KQU1 262327Z 15021KT 32/16 A3004 RMK A01 T03200157  RH  037%=      5-min Rain = 0
KQU1 262328Z 15020KT 32/16 A3004 RMK A01 T03200156  RH  037%=      5-min Rain = 0
KQU1 262329Z 15019KT 32/16 A3004 RMK A01 T03200159  RH  038%=      5-min Rain = 0
KQU1 262330Z 15021G27KT 32/16 A3004 RMK A01 T03190158  RH  038%=      5-min Rain = 0
KQU1 262331Z 15019G24KT 32/17 A3004 RMK A01 T03190165  RH  040%=      5-min Rain = 0
KQU1 262332Z 14020KT 32/17 A3004 RMK A01 T03180166  RH  040%=      5-min Rain = 0
KQU1 262333Z 15018KT 32/17 A3004 RMK A01 T03180166  RH  040%=      5-min Rain = 0
KQU1 262334Z 15020KT 32/17 A3004 RMK A01 T03170166  RH  040%=      5-min Rain = 0
KQU1 262335Z 15018KT 32/16 A3004 RMK A01 T03170163  RH  040%=      5-min Rain = 0
KQU1 262336Z 15019KT 32/16 A3004 RMK A01 T03170162  RH  039%=      5-min Rain = 0
KQU1 262337Z 15016KT 32/16 A3004 RMK A01 T03170164  RH  040%=      5-min Rain = 0
KQU1 262338Z 15021KT 32/17 A3004 RMK A01 T03180167  RH  040%=      5-min Rain = 0
KQU1 262339Z 15022KT 32/17 A3004 RMK A01 T03170166  RH  040%=      5-min Rain = 0
KQU1 262340Z 16019G24KT 32/17 A3004 RMK A01 T03150167  RH  041%=      5-min Rain = 0
KQU1 262341Z 14019G24KT 32/17 A3004 RMK A01 T03150170  RH  042%=      5-min Rain = 0
KQU1 262342Z 15021KT 31/17 A3004 RMK A01 T03140168  RH  042%=      5-min Rain = 0
KQU1 262343Z 14022KT 31/17 A3004 RMK A01 T03130168  RH  042%=      5-min Rain = 0
KQU1 262344Z 16019KT 31/17 A3004 RMK A01 T03120167  RH  042%=      5-min Rain = 0
KQU1 262345Z 16017KT 31/17 A3004 RMK A01 T03110168  RH  042%=      5-min Rain = 0
KQU1 262346Z 16019KT 31/17 A3004 RMK A01 T03110166  RH  042%=      5-min Rain = 0
KQU1 262347Z 16021KT 31/17 A3004 RMK A01 T03110166  RH  042%=      5-min Rain = 0
KQU1 262348Z 16020KT 31/17 A3004 RMK A01 T03110166  RH  042%=      5-min Rain = 0
KQU1 262349Z 15019G25KT 31/17 A3004 RMK A01 T03100165  RH  042%=      5-min Rain = 0
KQU1 262350Z 15017KT 31/17 A3004 RMK A01 T03100166  RH  042%=      5-min Rain = 0
KQU1 262351Z 15020KT 31/17 A3004 RMK A01 T03100166  RH  042%=      5-min Rain = 0
KQU1 262352Z 15019KT 31/17 A3004 RMK A01 T03100166  RH  042%=      5-min Rain = 0
KQU1 262353Z 15016KT 31/17 A3004 RMK A01 T03100167  RH  042%=      5-min Rain = 0
KQU1 262354Z 14020KT 31/17 A3004 RMK A01 T03110166  RH  042%=      5-min Rain = 0
KQU1 262355Z 14022KT 31/17 A3004 RMK A01 T03110167  RH  042%=      5-min Rain = 0
KQU1 262356Z 14021KT 31/17 A3004 RMK A01 T03110167  RH  042%=      5-min Rain = 0
KQU1 262357Z 15018KT 31/17 A3004 RMK A01 T03110169  RH  042%=      5-min Rain = 0
KQU1 262358Z 15018KT 31/17 A3004 RMK A01 T03120166  RH  042%=      5-min Rain = 0
KQU1 262359Z 15019KT 31/17 A3004 RMK A01 T03120166  RH  041%=      5-min Rain = 0
KQU1 270000Z 15018KT 31/17 A3004 RMK A01 T03120166  RH  041%=      5-min Rain = 0
KQU1 270001Z 16019KT 31/16 A3004 RMK A01 T03120163  RH  041%=      5-min Rain = 0
KQU1 270002Z 15018KT 31/16 A3004 RMK A01 T03120163  RH  041%=      5-min Rain = 0
KQU1 270003Z 15018KT 31/17 A3004 RMK A01 T03130165  RH  041%=      5-min Rain = 0
KQU1 270004Z 16017KT 31/17 A3004 RMK A01 T03130165  RH  041%=      5-min Rain = 0
KQU1 270005Z 16014KT 31/17 A3004 RMK A01 T03130167  RH  042%=      5-min Rain = 0
KQU1 270006Z 16015KT 31/17 A3005 RMK A01 T03130167  RH  041%=      5-min Rain = 0
KQU1 270007Z 15015KT 31/17 A3005 RMK A01 T03140169  RH  042%=      5-min Rain = 0
KQU1 270008Z 16018KT 31/17 A3005 RMK A01 T03130167  RH  041%=      5-min Rain = 0
KQU1 270009Z 15020KT 31/16 A3005 RMK A01 T03120164  RH  041%=      5-min Rain = 0
KQU1 270010Z 15016KT 31/17 A3005 RMK A01 T03120167  RH  042%=      5-min Rain = 0
KQU1 270011Z 17016KT 31/17 A3005 RMK A01 T03120166  RH  042%=      5-min Rain = 0
KQU1 270012Z 16017G22KT 31/17 A3005 RMK A01 T03110165  RH  041%=      5-min Rain = 0
KQU1 270013Z 17017KT 31/16 A3005 RMK A01 T03110164  RH  041%=      5-min Rain = 0
KQU1 270014Z 16018KT 31/16 A3005 RMK A01 T03100164  RH  041%=      5-min Rain = 0
KQU1 270015Z 16016KT 31/17 A3005 RMK A01 T03100165  RH  042%=      5-min Rain = 0
KQU1 270016Z 15019KT 31/17 A3005 RMK A01 T03100166  RH  042%=      5-min Rain = 0
KQU1 270017Z 16020KT 31/16 A3005 RMK A01 T03090164  RH  042%=      5-min Rain = 0
KQU1 270018Z 15019G24KT 31/17 A3005 RMK A01 T03090165  RH  042%=      5-min Rain = 0
KQU1 270019Z 16018G23KT 31/16 A3005 RMK A01 T03090164  RH  042%=      5-min Rain = 0
KQU1 270020Z 15018KT 31/16 A3005 RMK A01 T03080164  RH  042%=      5-min Rain = 0
KQU1 270021Z 16017KT 31/16 A3005 RMK A01 T03080164  RH  042%=      5-min Rain = 0
KQU1 270022Z 16015KT 31/17 A3005 RMK A01 T03080165  RH  042%=      5-min Rain = 0
KQU1 270023Z 17011KT 31/17 A3005 RMK A01 T03080170  RH  044%=      5-min Rain = 0
KQU1 270024Z 16015KT 31/17 A3005 RMK A01 T03080168  RH  043%=      5-min Rain = 0
KQU1 270025Z 17019KT 31/16 A3005 RMK A01 T03070162  RH  042%=      5-min Rain = 0
KQU1 270026Z 16016KT 31/16 A3005 RMK A01 T03060162  RH  042%=      5-min Rain = 0
KQU1 270027Z 16017KT 31/16 A3005 RMK A01 T03050162  RH  042%=      5-min Rain = 0
KQU1 270028Z 16016KT 31/16 A3005 RMK A01 T03050163  RH  042%=      5-min Rain = 0
KQU1 270029Z 16018KT 30/16 A3005 RMK A01 T03030161  RH  042%=      5-min Rain = 0
KQU1 270030Z 15019KT 30/16 A3006 RMK A01 T03020159  RH  042%=      5-min Rain = 0
KQU1 270031Z 16016G21KT 30/16 A3006 RMK A01 T03020161  RH  042%=      5-min Rain = 0
KQU1 270032Z 16019KT 30/16 A3006 RMK A01 T03020158  RH  042%=      5-min Rain = 0
KQU1 270033Z 16017KT 30/16 A3006 RMK A01 T03020158  RH  042%=      5-min Rain = 0
KQU1 270034Z 16017KT 30/16 A3006 RMK A01 T03020157  RH  042%=      5-min Rain = 0
KQU1 270035Z 17016KT 30/16 A3006 RMK A01 T03020158  RH  042%=      5-min Rain = 0
KQU1 270036Z 17019G24KT 30/16 A3006 RMK A01 T03010157  RH  042%=      5-min Rain = 0
KQU1 270037Z 16017KT 30/16 A3006 RMK A01 T03010157  RH  042%=      5-min Rain = 0
KQU1 270038Z 16015KT 30/16 A3006 RMK A01 T03010156  RH  042%=      5-min Rain = 0
KQU1 270039Z 17017KT 30/16 A3006 RMK A01 T03000156  RH  042%=      5-min Rain = 0
KQU1 270040Z 16017KT 30/16 A3006 RMK A01 T03000156  RH  042%=      5-min Rain = 0
KQU1 270041Z 16016KT 30/16 A3006 RMK A01 T02990156  RH  042%=      5-min Rain = 0
KQU1 270042Z 16015KT 30/16 A3007 RMK A01 T02980157  RH  042%=      5-min Rain = 0
KQU1 270043Z 16013KT 30/16 A3007 RMK A01 T02980157  RH  043%=      5-min Rain = 0
KQU1 270044Z 16016KT 30/16 A3007 RMK A01 T02980157  RH  043%=      5-min Rain = 0
KQU1 270045Z 16018KT 30/16 A3007 RMK A01 T02970155  RH  042%=      5-min Rain = 0
KQU1 270046Z 16015KT 30/16 A3007 RMK A01 T02970156  RH  042%=      5-min Rain = 0
KQU1 270047Z 16015KT 30/16 A3007 RMK A01 T02970156  RH  043%=      5-min Rain = 0
KQU1 270048Z 16016KT 30/16 A3007 RMK A01 T02960155  RH  043%=      5-min Rain = 0
KQU1 270049Z 16013KT 30/16 A3007 RMK A01 T02960156  RH  043%=      5-min Rain = 0
KQU1 270050Z 16015KT 30/16 A3007 RMK A01 T02950155  RH  043%=      5-min Rain = 0
KQU1 270051Z 16016KT 30/16 A3007 RMK A01 T02950155  RH  043%=      5-min Rain = 0
KQU1 270052Z 16016KT 30/15 A3007 RMK A01 T02950154  RH  042%=      5-min Rain = 0
KQU1 270053Z 17013KT 30/16 A3007 RMK A01 T02950156  RH  043%=      5-min Rain = 0
KQU1 270054Z 17014KT 29/16 A3007 RMK A01 T02940156  RH  043%=      5-min Rain = 0
KQU1 270055Z 16016KT 29/15 A3007 RMK A01 T02930154  RH  043%=      5-min Rain = 0
KQU1 270056Z 16012KT 29/16 A3007 RMK A01 T02930155  RH  043%=      5-min Rain = 0
KQU1 270057Z 16014KT 29/15 A3007 RMK A01 T02930153  RH  043%=      5-min Rain = 0
KQU1 270058Z 16015KT 29/15 A3007 RMK A01 T02920152  RH  043%=      5-min Rain = 0
KQU1 270059Z 16014KT 29/15 A3007 RMK A01 T02920153  RH  043%=      5-min Rain = 0
KQU1 270100Z 16017KT 29/15 A3007 RMK A01 T02920151  RH  042%=      5-min Rain = 0
KQU1 270101Z 16013KT 29/15 A3007 RMK A01 T02920152  RH  043%=      5-min Rain = 0
KQU1 270102Z 16011KT 29/15 A3007 RMK A01 T02920154  RH  043%=      5-min Rain = 0
KQU1 270103Z 16011G17KT 29/15 A3007 RMK A01 T02910154  RH  043%=      5-min Rain = 0
KQU1 270104Z 16012KT 29/15 A3007 RMK A01 T02900153  RH  043%=      5-min Rain = 0
KQU1 270105Z 16012KT 29/15 A3007 RMK A01 T02900154  RH  044%=      5-min Rain = 0
KQU1 270106Z 16014KT 29/15 A3007 RMK A01 T02900152  RH  043%=      5-min Rain = 0
KQU1 270107Z 16012KT 29/15 A3007 RMK A01 T02900153  RH  043%=      5-min Rain = 0
KQU1 270108Z 16011G16KT 29/15 A3007 RMK A01 T02900153  RH  043%=      5-min Rain = 0
KQU1 270109Z 16013KT 29/15 A3007 RMK A01 T02890152  RH  043%=      5-min Rain = 0
KQU1 270110Z 16013KT 29/15 A3007 RMK A01 T02890152  RH  043%=      5-min Rain = 0
KQU1 270111Z 16015KT 29/15 A3007 RMK A01 T02890151  RH  043%=      5-min Rain = 0
KQU1 270112Z 16013KT 29/15 A3008 RMK A01 T02890152  RH  043%=      5-min Rain = 0
KQU1 270113Z 16011KT 29/15 A3008 RMK A01 T02890152  RH  043%=      5-min Rain = 0
KQU1 270114Z 16011KT 29/15 A3008 RMK A01 T02880152  RH  043%=      5-min Rain = 0
KQU1 270115Z 16010KT 29/15 A3008 RMK A01 T02880153  RH  044%=      5-min Rain = 0
KQU1 270116Z 16010KT 29/15 A3008 RMK A01 T02870154  RH  044%=      5-min Rain = 0
KQU1 270117Z 16010KT 29/15 A3008 RMK A01 T02870153  RH  044%=      5-min Rain = 0
KQU1 270118Z 15008KT 29/16 A3008 RMK A01 T02860155  RH  045%=      5-min Rain = 0
KQU1 270119Z 16012KT 29/16 A3008 RMK A01 T02850155  RH  045%=      5-min Rain = 0
KQU1 270120Z 15012KT 29/16 A3008 RMK A01 T02850155  RH  045%=      5-min Rain = 0
KQU1 270121Z 16012KT 29/16 A3008 RMK A01 T02850156  RH  045%=      5-min Rain = 0
KQU1 270122Z 16011KT 29/16 A3008 RMK A01 T02850155  RH  045%=      5-min Rain = 0
KQU1 270123Z 16011KT 29/16 A3008 RMK A01 T02850156  RH  046%=      5-min Rain = 0
KQU1 270124Z 15010KT 28/16 A3008 RMK A01 T02840156  RH  046%=      5-min Rain = 0
KQU1 270125Z 15013KT 28/16 A3008 RMK A01 T02840156  RH  046%=      5-min Rain = 0
KQU1 270126Z 15013KT 28/16 A3008 RMK A01 T02840156  RH  046%=      5-min Rain = 0
KQU1 270127Z 15012KT 28/16 A3008 RMK A01 T02840156  RH  046%=      5-min Rain = 0
KQU1 270128Z 16012KT 28/16 A3009 RMK A01 T02840157  RH  046%=      5-min Rain = 0
KQU1 270129Z 15012KT 28/16 A3009 RMK A01 T02830157  RH  046%=      5-min Rain = 0
KQU1 270130Z 15011KT 28/16 A3009 RMK A01 T02830157  RH  046%=      5-min Rain = 0
KQU1 270131Z 15012KT 28/16 A3009 RMK A01 T02830157  RH  047%=      5-min Rain = 0
KQU1 270132Z 16013KT 28/16 A3009 RMK A01 T02820157  RH  047%=      5-min Rain = 0
KQU1 270133Z 15012KT 28/16 A3009 RMK A01 T02820157  RH  047%=      5-min Rain = 0
KQU1 270134Z 16011KT 28/16 A3009 RMK A01 T02810157  RH  047%=      5-min Rain = 0
KQU1 270135Z 15012KT 28/16 A3009 RMK A01 T02800157  RH  047%=      5-min Rain = 0
KQU1 270136Z 16014KT 28/16 A3009 RMK A01 T02800155  RH  047%=      5-min Rain = 0
KQU1 270137Z 15011KT 28/16 A3009 RMK A01 T02810156  RH  047%=      5-min Rain = 0
KQU1 270138Z 15012KT 28/16 A3009 RMK A01 T02800155  RH  047%=      5-min Rain = 0
KQU1 270139Z 15011KT 28/16 A3009 RMK A01 T02800156  RH  047%=      5-min Rain = 0
KQU1 270140Z 15011KT 28/16 A3009 RMK A01 T02790156  RH  047%=      5-min Rain = 0
KQU1 270141Z 15011KT 28/16 A3009 RMK A01 T02790156  RH  047%=      5-min Rain = 0
KQU1 270142Z 15011KT 28/16 A3009 RMK A01 T02780156  RH  047%=      5-min Rain = 0
KQU1 270143Z 15010KT 28/16 A3009 RMK A01 T02780156  RH  048%=      5-min Rain = 0
KQU1 270144Z 16010KT 28/16 A3009 RMK A01 T02770156  RH  048%=      5-min Rain = 0
KQU1 270145Z 15010KT 28/16 A3009 RMK A01 T02760157  RH  048%=      5-min Rain = 0
KQU1 270146Z 15011KT 28/16 A3009 RMK A01 T02760157  RH  048%=      5-min Rain = 0
KQU1 270147Z 15010KT 28/16 A3009 RMK A01 T02750157  RH  048%=      5-min Rain = 0
KQU1 270148Z 15010KT 28/16 A3009 RMK A01 T02750157  RH  049%=      5-min Rain = 0
KQU1 270149Z 16012KT 27/16 A3009 RMK A01 T02740156  RH  048%=      5-min Rain = 0
KQU1 270150Z 16011KT 28/16 A3009 RMK A01 T02750156  RH  048%=      5-min Rain = 0
KQU1 270151Z 16011KT 28/16 A3009 RMK A01 T02750156  RH  048%=      5-min Rain = 0
KQU1 270152Z 16010KT 28/16 A3009 RMK A01 T02750156  RH  048%=      5-min Rain = 0
KQU1 270153Z 16010KT 28/16 A3009 RMK A01 T02750156  RH  048%=      5-min Rain = 0
KQU1 270154Z 16011KT 28/16 A3009 RMK A01 T02750156  RH  048%=      5-min Rain = 0
KQU1 270155Z 16011KT 28/16 A3009 RMK A01 T02750156  RH  048%=      5-min Rain = 0
KQU1 270156Z 16010KT 27/16 A3009 RMK A01 T02740156  RH  048%=      5-min Rain = 0
KQU1 270157Z 16009KT 27/16 A3009 RMK A01 T02740156  RH  049%=      5-min Rain = 0
KQU1 270158Z 16010KT 27/16 A3009 RMK A01 T02730157  RH  049%=      5-min Rain = 0
KQU1 270159Z 16010KT 27/16 A3009 RMK A01 T02730157  RH  049%=      5-min Rain = 0
KQU1 270200Z 16010KT 27/16 A3009 RMK A01 T02720157  RH  049%=      5-min Rain = 0
KQU1 270201Z 16010KT 27/16 A3009 RMK A01 T02720157  RH  049%=      5-min Rain = 0
KQU1 270202Z 16010KT 27/16 A3009 RMK A01 T02710157  RH  050%=      5-min Rain = 0
KQU1 270203Z 16010KT 27/16 A3009 RMK A01 T02710157  RH  050%=      5-min Rain = 0
KQU1 270204Z 16009KT 27/16 A3009 RMK A01 T02710158  RH  050%=      5-min Rain = 0
KQU1 270205Z 16010KT 27/16 A3009 RMK A01 T02710157  RH  050%=      5-min Rain = 0
KQU1 270206Z 16009KT 27/16 A3009 RMK A01 T02710158  RH  050%=      5-min Rain = 0
KQU1 270207Z 16009KT 27/16 A3009 RMK A01 T02700158  RH  050%=      5-min Rain = 0
KQU1 270208Z 16009KT 27/16 A3009 RMK A01 T02690158  RH  051%=      5-min Rain = 0
KQU1 270209Z 16011KT 27/16 A3009 RMK A01 T02690158  RH  051%=      5-min Rain = 0
KQU1 270210Z 16009KT 27/16 A3009 RMK A01 T02690159  RH  051%=      5-min Rain = 0
KQU1 270211Z 16009KT 27/16 A3009 RMK A01 T02680158  RH  051%=      5-min Rain = 0
KQU1 270212Z 16008KT 27/16 A3009 RMK A01 T02680159  RH  051%=      5-min Rain = 0
KQU1 270213Z 16009KT 27/16 A3009 RMK A01 T02670159  RH  051%=      5-min Rain = 0
KQU1 270214Z 16009KT 27/16 A301 RMK A01 T02670159  RH  051%=      5-min Rain = 0
KQU1 270215Z 16010KT 27/16 A301 RMK A01 T02680158  RH  051%=      5-min Rain = 0
KQU1 270216Z 16010KT 27/16 A301 RMK A01 T02680159  RH  051%=      5-min Rain = 0
KQU1 270217Z 16009KT 27/16 A301 RMK A01 T02680159  RH  051%=      5-min Rain = 0
KQU1 270218Z 16009KT 27/16 A301 RMK A01 T02670159  RH  052%=      5-min Rain = 0
KQU1 270219Z 16008KT 27/16 A301 RMK A01 T02660160  RH  052%=      5-min Rain = 0
KQU1 270220Z 16009KT 27/16 A301 RMK A01 T02660160  RH  052%=      5-min Rain = 0
KQU1 270221Z 16009KT 27/16 A301 RMK A01 T02650161  RH  052%=      5-min Rain = 0
KQU1 270222Z 16009KT 27/16 A301 RMK A01 T02650161  RH  053%=      5-min Rain = 0
KQU1 270223Z 16008KT 27/16 A301 RMK A01 T02650161  RH  053%=      5-min Rain = 0
KQU1 270224Z 16009KT 26/16 A301 RMK A01 T02640161  RH  053%=      5-min Rain = 0
KQU1 270225Z 16008KT 26/16 A301 RMK A01 T02630161  RH  053%=      5-min Rain = 0
KQU1 270226Z 16009KT 26/16 A301 RMK A01 T02630162  RH  054%=      5-min Rain = 0
KQU1 270227Z 16009KT 26/16 A301 RMK A01 T02620162  RH  054%=      5-min Rain = 0
KQU1 270228Z 16009KT 26/16 A301 RMK A01 T02610162  RH  054%=      5-min Rain = 0
KQU1 270229Z 16008KT 26/16 A301 RMK A01 T02610163  RH  055%=      5-min Rain = 0
KQU1 270230Z 16008KT 26/16 A301 RMK A01 T02600163  RH  055%=      5-min Rain = 0
KQU1 270231Z 16008KT 26/16 A301 RMK A01 T02600163  RH  055%=      5-min Rain = 0
KQU1 270232Z 16009KT 26/16 A301 RMK A01 T02600163  RH  055%=      5-min Rain = 0
KQU1 270233Z 16009KT 26/16 A301 RMK A01 T02590163  RH  055%=      5-min Rain = 0
KQU1 270234Z 16008KT 26/16 A301 RMK A01 T02590164  RH  055%=      5-min Rain = 0
KQU1 270235Z 16008KT 26/16 A301 RMK A01 T02600164  RH  056%=      5-min Rain = 0
KQU1 270236Z 16007KT 26/16 A301 RMK A01 T02590164  RH  056%=      5-min Rain = 0
KQU1 270237Z 16008KT 26/17 A301 RMK A01 T02580165  RH  056%=      5-min Rain = 0
KQU1 270238Z 16007KT 26/17 A301 RMK A01 T02580165  RH  056%=      5-min Rain = 0
KQU1 270239Z 16009KT 26/17 A301 RMK A01 T02580165  RH  057%=      5-min Rain = 0
KQU1 270240Z 16007KT 26/17 A301 RMK A01 T02580165  RH  057%=      5-min Rain = 0
KQU1 270241Z 16008KT 26/17 A301 RMK A01 T02570165  RH  057%=      5-min Rain = 0
KQU1 270242Z 16008KT 26/17 A3011 RMK A01 T02570166  RH  057%=      5-min Rain = 0
KQU1 270243Z 17007KT 26/17 A3011 RMK A01 T02570166  RH  057%=      5-min Rain = 0
KQU1 270244Z 17007KT 26/17 A3011 RMK A01 T02560166  RH  058%=      5-min Rain = 0
KQU1 270245Z 17008KT 26/17 A3011 RMK A01 T02560167  RH  058%=      5-min Rain = 0
KQU1 270246Z 17008KT 26/17 A3011 RMK A01 T02560167  RH  058%=      5-min Rain = 0
KQU1 270247Z 17007KT 26/17 A3011 RMK A01 T02560167  RH  058%=      5-min Rain = 0
KQU1 270248Z 18006KT 26/17 A3011 RMK A01 T02550167  RH  058%=      5-min Rain = 0
KQU1 270249Z 18005KT 26/17 A3011 RMK A01 T02550167  RH  058%=      5-min Rain = 0
KQU1 270250Z 18006KT 25/17 A3011 RMK A01 T02540166  RH  058%=      5-min Rain = 0
KQU1 270251Z 18006KT 25/17 A3011 RMK A01 T02530166  RH  059%=      5-min Rain = 0
KQU1 270252Z 18006KT 25/17 A3011 RMK A01 T02520166  RH  059%=      5-min Rain = 0
KQU1 270253Z 18005KT 25/17 A3011 RMK A01 T02510167  RH  059%=      5-min Rain = 0
KQU1 270254Z 18005KT 25/17 A3011 RMK A01 T02500167  RH  060%=      5-min Rain = 0
KQU1 270255Z 18005KT 25/17 A3012 RMK A01 T02490167  RH  060%=      5-min Rain = 0
KQU1 270256Z 18005KT 25/17 A3012 RMK A01 T02480167  RH  061%=      5-min Rain = 0
KQU1 270257Z 19005KT 25/17 A3012 RMK A01 T02480167  RH  061%=      5-min Rain = 0
KQU1 270258Z 18005KT 25/17 A3012 RMK A01 T02470168  RH  061%=      5-min Rain = 0
KQU1 270259Z 18005KT 25/17 A3012 RMK A01 T02470168  RH  061%=      5-min Rain = 0
KQU1 270300Z 19005KT 25/17 A3012 RMK A01 T02460168  RH  062%=      5-min Rain = 0
KQU1 270301Z 18006KT 25/17 A3012 RMK A01 T02460168  RH  062%=      5-min Rain = 0
KQU1 270302Z 19005KT 25/17 A3012 RMK A01 T02450168  RH  062%=      5-min Rain = 0
KQU1 270303Z 19005KT 24/17 A3012 RMK A01 T02440168  RH  063%=      5-min Rain = 0
KQU1 270304Z 20005KT 24/17 A3013 RMK A01 T02430168  RH  063%=      5-min Rain = 0
KQU1 270305Z 20005KT 24/17 A3013 RMK A01 T02420168  RH  063%=      5-min Rain = 0
KQU1 270306Z 20005KT 24/17 A3013 RMK A01 T02410168  RH  064%=      5-min Rain = 0
KQU1 270307Z 19006KT 24/17 A3013 RMK A01 T02400169  RH  064%=      5-min Rain = 0
KQU1 270308Z 20006KT 24/17 A3013 RMK A01 T02400169  RH  064%=      5-min Rain = 0
KQU1 270309Z 20005KT 24/17 A3013 RMK A01 T02400169  RH  065%=      5-min Rain = 0
KQU1 270310Z 20006KT 24/17 A3013 RMK A01 T02390169  RH  065%=      5-min Rain = 0
KQU1 270311Z 20005KT 24/17 A3013 RMK A01 T02390169  RH  065%=      5-min Rain = 0
KQU1 270312Z 20005KT 24/17 A3013 RMK A01 T02380169  RH  065%=      5-min Rain = 0
KQU1 270313Z 20006KT 24/17 A3013 RMK A01 T02380169  RH  065%=      5-min Rain = 0
KQU1 270314Z 20006KT 24/17 A3014 RMK A01 T02370169  RH  066%=      5-min Rain = 0
KQU1 270315Z 20006KT 24/17 A3014 RMK A01 T02370170  RH  066%=      5-min Rain = 0
KQU1 270316Z 20006KT 24/17 A3014 RMK A01 T02370170  RH  066%=      5-min Rain = 0
KQU1 270317Z 19006KT 24/17 A3014 RMK A01 T02370170  RH  066%=      5-min Rain = 0
KQU1 270318Z 19006KT 24/17 A3014 RMK A01 T02370170  RH  066%=      5-min Rain = 0
KQU1 270319Z 19006KT 24/17 A3014 RMK A01 T02380170  RH  066%=      5-min Rain = 0
KQU1 270320Z 19006KT 24/17 A3014 RMK A01 T02390170  RH  065%=      5-min Rain = 0
KQU1 270321Z 19006KT 24/17 A3014 RMK A01 T02390170  RH  065%=      5-min Rain = 0
KQU1 270322Z 19006KT 24/17 A3014 RMK A01 T02400170  RH  065%=      5-min Rain = 0
KQU1 270323Z 19006KT 24/17 A3014 RMK A01 T02400170  RH  065%=      5-min Rain = 0
KQU1 270324Z 19006KT 24/17 A3014 RMK A01 T02400170  RH  065%=      5-min Rain = 0
KQU1 270325Z 19006KT 24/17 A3014 RMK A01 T02400170  RH  065%=      5-min Rain = 0
KQU1 270326Z 19006KT 24/17 A3015 RMK A01 T02400170  RH  065%=      5-min Rain = 0
KQU1 270327Z 20005KT 24/17 A3015 RMK A01 T02400170  RH  065%=      5-min Rain = 0
KQU1 270328Z 20006KT 24/17 A3015 RMK A01 T02390171  RH  065%=      5-min Rain = 0
KQU1 270329Z 20006KT 24/17 A3015 RMK A01 T02380171  RH  066%=      5-min Rain = 0
KQU1 270330Z 21006KT 24/17 A3015 RMK A01 T02370171  RH  067%=      5-min Rain = 0
KQU1 270331Z 21006KT 24/17 A3015 RMK A01 T02360171  RH  067%=      5-min Rain = 0
KQU1 270332Z 21007KT 24/17 A3015 RMK A01 T02350171  RH  068%=      5-min Rain = 0
KQU1 270333Z 20007KT 23/17 A3015 RMK A01 T02340172  RH  068%=      5-min Rain = 0
KQU1 270334Z 20007KT 23/17 A3015 RMK A01 T02340172  RH  068%=      5-min Rain = 0
KQU1 270335Z 20007KT 23/17 A3015 RMK A01 T02340172  RH  068%=      5-min Rain = 0
KQU1 270336Z 20007KT 23/17 A3015 RMK A01 T02340172  RH  068%=      5-min Rain = 0
KQU1 270337Z 21006KT 23/17 A3015 RMK A01 T02340172  RH  068%=      5-min Rain = 0
KQU1 270338Z 21007KT 23/17 A3015 RMK A01 T02340172  RH  068%=      5-min Rain = 0
KQU1 270339Z 21007KT 23/17 A3015 RMK A01 T02330172  RH  068%=      5-min Rain = 0
KQU1 270340Z 21006KT 23/17 A3016 RMK A01 T02330172  RH  068%=      5-min Rain = 0
KQU1 270341Z 21006KT 23/17 A3016 RMK A01 T02330172  RH  069%=      5-min Rain = 0
KQU1 270342Z 21006KT 23/17 A3016 RMK A01 T02330172  RH  069%=      5-min Rain = 0
KQU1 270343Z 21006KT 23/17 A3016 RMK A01 T02330173  RH  069%=      5-min Rain = 0
KQU1 270344Z 21006KT 23/17 A3016 RMK A01 T02320172  RH  069%=      5-min Rain = 0
KQU1 270345Z 21006KT 23/17 A3016 RMK A01 T02320173  RH  069%=      5-min Rain = 0
KQU1 270346Z 21006KT 23/17 A3016 RMK A01 T02320173  RH  069%=      5-min Rain = 0
KQU1 270347Z 21007KT 23/17 A3016 RMK A01 T02320173  RH  069%=      5-min Rain = 0
KQU1 270348Z 21007KT 23/17 A3016 RMK A01 T02320173  RH  069%=      5-min Rain = 0
KQU1 270349Z 21006KT 23/17 A3016 RMK A01 T02320173  RH  069%=      5-min Rain = 0
KQU1 270350Z 21006KT 23/17 A3016 RMK A01 T02330173  RH  069%=      5-min Rain = 0
KQU1 270351Z 20006KT 23/17 A3016 RMK A01 T02330173  RH  069%=      5-min Rain = 0
KQU1 270352Z 20006KT 23/17 A3016 RMK A01 T02330174  RH  069%=      5-min Rain = 0
KQU1 270353Z 20007KT 23/17 A3016 RMK A01 T02330174  RH  069%=      5-min Rain = 0
KQU1 270354Z 20007KT 23/17 A3016 RMK A01 T02330174  RH  069%=      5-min Rain = 0
KQU1 270355Z 20006KT 23/17 A3016 RMK A01 T02330174  RH  069%=      5-min Rain = 0
KQU1 270356Z 20006KT 23/17 A3016 RMK A01 T02330174  RH  069%=      5-min Rain = 0
KQU1 270357Z 19006KT 23/17 A3016 RMK A01 T02340174  RH  069%=      5-min Rain = 0
KQU1 270358Z 19006KT 23/17 A3016 RMK A01 T02340174  RH  069%=      5-min Rain = 0
KQU1 270359Z 19006KT 23/17 A3016 RMK A01 T02340174  RH  069%=      5-min Rain = 0
KQU1 270400Z 19006KT 23/17 A3016 RMK A01 T02340174  RH  069%=      5-min Rain = 0
KQU1 270401Z 19006KT 23/17 A3016 RMK A01 T02340174  RH  069%=      5-min Rain = 0
KQU1 270402Z 19006KT 23/17 A3016 RMK A01 T02340174  RH  069%=      5-min Rain = 0
KQU1 270403Z 19006KT 23/17 A3016 RMK A01 T02340174  RH  069%=      5-min Rain = 0
KQU1 270404Z 19006KT 23/17 A3016 RMK A01 T02330174  RH  069%=      5-min Rain = 0
KQU1 270405Z 19006KT 23/17 A3016 RMK A01 T02330174  RH  069%=      5-min Rain = 0
KQU1 270406Z 19006KT 23/17 A3016 RMK A01 T02330174  RH  069%=      5-min Rain = 0
KQU1 270407Z 18006KT 23/17 A3016 RMK A01 T02330174  RH  069%=      5-min Rain = 0
KQU1 270408Z 18006KT 23/17 A3015 RMK A01 T02320174  RH  070%=      5-min Rain = 0
KQU1 270409Z 18006KT 23/17 A3016 RMK A01 T02320174  RH  070%=      5-min Rain = 0
KQU1 270410Z 18006KT 23/17 A3016 RMK A01 T02320174  RH  070%=      5-min Rain = 0
KQU1 270411Z 18005KT 23/17 A3016 RMK A01 T02320174  RH  070%=      5-min Rain = 0
KQU1 270412Z 18005KT 23/18 A3016 RMK A01 T02310175  RH  070%=      5-min Rain = 0
KQU1 270413Z 18005KT 23/18 A3016 RMK A01 T02310175  RH  070%=      5-min Rain = 0
KQU1 270414Z 18005KT 23/18 A3016 RMK A01 T02310175  RH  071%=      5-min Rain = 0
KQU1 270415Z 18005KT 23/18 A3016 RMK A01 T02310175  RH  071%=      5-min Rain = 0
KQU1 270416Z 18005KT 23/18 A3016 RMK A01 T02300175  RH  071%=      5-min Rain = 0
KQU1 270417Z 18005KT 23/18 A3016 RMK A01 T02300175  RH  071%=      5-min Rain = 0
KQU1 270418Z 19005KT 23/18 A3016 RMK A01 T02300176  RH  071%=      5-min Rain = 0
KQU1 270419Z 19004KT 23/18 A3016 RMK A01 T02290176  RH  072%=      5-min Rain = 0
KQU1 270420Z 19004KT 23/18 A3016 RMK A01 T02290176  RH  072%=      5-min Rain = 0
KQU1 270421Z 19004KT 23/18 A3016 RMK A01 T02280176  RH  073%=      5-min Rain = 0
KQU1 270422Z 19004KT 23/18 A3016 RMK A01 T02270176  RH  073%=      5-min Rain = 0
KQU1 270423Z 19004KT 23/18 A3016 RMK A01 T02270177  RH  073%=      5-min Rain = 0
KQU1 270424Z 19004KT 23/18 A3016 RMK A01 T02260177  RH  074%=      5-min Rain = 0
KQU1 270425Z 19004KT 23/18 A3016 RMK A01 T02260177  RH  074%=      5-min Rain = 0
KQU1 270426Z 19005KT 23/18 A3016 RMK A01 T02260177  RH  074%=      5-min Rain = 0
KQU1 270427Z 19005KT 23/18 A3016 RMK A01 T02260177  RH  074%=      5-min Rain = 0
KQU1 270428Z 19005KT 23/18 A3016 RMK A01 T02260177  RH  074%=      5-min Rain = 0
KQU1 270429Z 18005KT 23/18 A3016 RMK A01 T02270177  RH  074%=      5-min Rain = 0
KQU1 270430Z 19006KT 23/18 A3016 RMK A01 T02270177  RH  073%=      5-min Rain = 0
KQU1 270431Z 19005KT 23/18 A3016 RMK A01 T02280177  RH  073%=      5-min Rain = 0
KQU1 270432Z 19006KT 23/18 A3016 RMK A01 T02280177  RH  073%=      5-min Rain = 0
KQU1 270433Z 18006KT 23/18 A3016 RMK A01 T02290177  RH  072%=      5-min Rain = 0
KQU1 270434Z 18006KT 23/18 A3016 RMK A01 T02300177  RH  072%=      5-min Rain = 0
KQU1 270435Z 19006KT 23/18 A3016 RMK A01 T02300177  RH  072%=      5-min Rain = 0
KQU1 270436Z 19006KT 23/18 A3016 RMK A01 T02310177  RH  072%=      5-min Rain = 0
KQU1 270437Z 19006KT 23/18 A3016 RMK A01 T02310177  RH  072%=      5-min Rain = 0
KQU1 270438Z 18006KT 23/18 A3016 RMK A01 T02310177  RH  072%=      5-min Rain = 0
KQU1 270439Z 18007KT 23/18 A3015 RMK A01 T02300177  RH  072%=      5-min Rain = 0
KQU1 270440Z 18006KT 23/18 A3015 RMK A01 T02300177  RH  072%=      5-min Rain = 0
KQU1 270441Z 18006KT 23/18 A3015 RMK A01 T02300177  RH  072%=      5-min Rain = 0
KQU1 270442Z 18007KT 23/18 A3015 RMK A01 T02300177  RH  072%=      5-min Rain = 0
KQU1 270443Z 18007KT 23/18 A3015 RMK A01 T02300177  RH  072%=      5-min Rain = 0
KQU1 270444Z 19006KT 23/18 A3015 RMK A01 T02300177  RH  072%=      5-min Rain = 0
KQU1 270445Z 18007KT 23/18 A3015 RMK A01 T02290177  RH  072%=      5-min Rain = 0
KQU1 270446Z 19007KT 23/18 A3015 RMK A01 T02300178  RH  072%=      5-min Rain = 0
KQU1 270447Z 19006KT 23/18 A3015 RMK A01 T02300178  RH  072%=      5-min Rain = 0
KQU1 270448Z 19007KT 23/18 A3015 RMK A01 T02290178  RH  073%=      5-min Rain = 0
KQU1 270449Z 18007KT 23/18 A3015 RMK A01 T02290177  RH  073%=      5-min Rain = 0
KQU1 270450Z 19006KT 23/18 A3015 RMK A01 T02290178  RH  073%=      5-min Rain = 0
KQU1 270451Z 19007KT 23/18 A3015 RMK A01 T02280177  RH  073%=      5-min Rain = 0
KQU1 270452Z 18007KT 23/18 A3015 RMK A01 T02280177  RH  073%=      5-min Rain = 0
KQU1 270453Z 19007KT 23/18 A3015 RMK A01 T02280177  RH  073%=      5-min Rain = 0
KQU1 270454Z 19006KT 23/18 A3015 RMK A01 T02280177  RH  073%=      5-min Rain = 0
KQU1 270455Z 18007KT 23/18 A3015 RMK A01 T02280177  RH  073%=      5-min Rain = 0
KQU1 270456Z 18007KT 23/18 A3015 RMK A01 T02280177  RH  073%=      5-min Rain = 0
KQU1 270457Z 18006KT 23/18 A3015 RMK A01 T02270177  RH  073%=      5-min Rain = 0
KQU1 270458Z 18006KT 23/18 A3015 RMK A01 T02280177  RH  073%=      5-min Rain = 0
KQU1 270459Z 18007KT 23/18 A3015 RMK A01 T02280177  RH  073%=      5-min Rain = 0

Page generated in 0.0697 seconds.